Time,TemperatureF,DewpointF,PressureIn,WindDirection,WindDirectionDegrees,WindSpeedMPH,WindSpeedGustMPH,Humidity,HourlyPrecipIn,Conditions,Clouds,dailyrainin,SoftwareType,DateUTC
2013-05-04 09:28:00,59.9,41.2,29.79,NE,45,3.1,3.1,50,0.00,,OVC060,0.00,VWS V14.01,2013-05-04 13:28:00,
2013-05-04 09:29:00,59.9,41.2,29.79,NE,45,3.1,3.1,50,0.00,,OVC060,0.00,VWS V14.01,2013-05-04 13:29:00,
2013-05-04 09:30:00,59.9,41.2,29.79,SSE,158,0.0,3.1,50,0.00,,OVC060,0.00,VWS V14.01,2013-05-04 13:30:00,
2013-05-04 09:31:00,59.9,41.2,29.79,ENE,68,0.0,0.0,50,0.00,,OVC060,0.00,VWS V14.01,2013-05-04 13:31:00,
2013-05-04 09:32:00,59.5,39.8,29.79,WNW,292,1.3,2.0,48,0.00,,OVC060,0.00,VWS V14.01,2013-05-04 13:32:00,
2013-05-04 09:33:00,59.4,39.2,29.79,SW,225,1.3,1.3,47,0.00,,OVC060,0.00,VWS V14.01,2013-05-04 13:33:00,
2013-05-04 09:34:00,59.4,39.2,29.79,SW,225,1.3,1.3,47,0.00,,OVC060,0.00,VWS V14.01,2013-05-04 13:34:00,
2013-05-04 09:35:00,59.4,39.2,29.79,NNW,338,2.2,2.2,47,0.00,,OVC060,0.00,VWS V14.01,2013-05-04 13:35:00,
2013-05-04 09:36:00,59.4,39.2,29.79,NNW,338,2.2,2.2,47,0.00,,OVC060,0.00,VWS V14.01,2013-05-04 13:36:00,
2013-05-04 09:37:00,59.4,39.2,29.80,NNW,338,2.2,2.2,47,0.00,,OVC060,0.00,VWS V14.01,2013-05-04 13:37:00,
2013-05-04 09:38:00,59.4,39.2,29.79,ENE,68,2.0,2.2,47,0.00,,OVC060,0.00,VWS V14.01,2013-05-04 13:38:00,
2013-05-04 09:39:00,61.0,39.5,29.80,ENE,68,2.0,2.2,45,0.00,,OVC060,0.00,VWS V14.01,2013-05-04 13:39:00,
2013-05-04 09:40:00,61.0,39.5,29.80,SSE,158,2.5,2.5,45,0.00,,OVC060,0.00,VWS V14.01,2013-05-04 13:40:00,
2013-05-04 09:41:00,61.2,38.5,29.80,SSE,158,0.0,2.5,43,0.00,,OVC060,0.00,VWS V14.01,2013-05-04 13:41:00,
2013-05-04 09:42:00,61.2,38.5,29.80,SE,135,2.0,2.0,43,0.00,,OVC060,0.00,VWS V14.01,2013-05-04 13:42:00,
2013-05-04 09:43:00,61.2,38.5,29.79,SSE,158,2.7,2.7,43,0.00,,OVC060,0.00,VWS V14.01,2013-05-04 13:43:00,
2013-05-04 09:44:00,61.2,38.5,29.80,ESE,112,2.5,2.7,43,0.00,,OVC060,0.00,VWS V14.01,2013-05-04 13:44:00,
2013-05-04 09:45:00,61.7,37.2,29.80,WNW,292,2.7,2.7,40,0.00,,OVC060,0.00,VWS V14.01,2013-05-04 13:45:00,
2013-05-04 09:46:00,61.0,35.2,29.80,West,270,1.1,2.7,38,0.00,,OVC060,0.00,VWS V14.01,2013-05-04 13:46:00,
2013-05-04 09:47:00,61.0,35.2,29.80,South,180,2.9,2.9,38,0.00,,OVC060,0.00,VWS V14.01,2013-05-04 13:47:00,
2013-05-04 09:48:00,61.0,35.9,29.79,South,180,2.9,2.9,39,0.00,,OVC060,0.00,VWS V14.01,2013-05-04 13:48:00,
2013-05-04 09:49:00,61.0,35.9,29.80,South,180,2.9,2.9,39,0.00,,OVC060,0.00,VWS V14.01,2013-05-04 13:49:00,
2013-05-04 09:50:00,61.0,35.9,29.80,SE,135,2.0,2.9,39,0.00,,OVC060,0.00,VWS V14.01,2013-05-04 13:50:00,
2013-05-04 09:51:00,61.0,35.9,29.80,ESE,112,2.7,2.7,39,0.00,,OVC060,0.00,VWS V14.01,2013-05-04 13:51:00,
2013-05-04 09:52:00,61.7,36.5,29.80,East,90,2.5,2.7,39,0.00,,OVC060,0.00,VWS V14.01,2013-05-04 13:52:00,
2013-05-04 09:53:00,61.7,35.2,29.79,WNW,292,0.9,2.2,37,0.00,,OVC060,0.00,VWS V14.01,2013-05-04 13:53:00,
2013-05-04 09:54:00,61.7,35.2,29.80,WNW,292,0.9,2.2,37,0.00,,OVC060,0.00,VWS V14.01,2013-05-04 13:54:00,
2013-05-04 09:55:00,61.9,35.3,29.80,ESE,112,1.6,1.6,37,0.00,,OVC060,0.00,VWS V14.01,2013-05-04 13:55:00,
2013-05-04 09:56:00,61.9,35.3,29.80,SSW,202,0.0,1.6,37,0.00,,OVC060,0.00,VWS V14.01,2013-05-04 13:56:00,
2013-05-04 09:57:00,62.4,36.5,29.80,West,270,0.0,2.0,38,0.00,,OVC060,0.00,VWS V14.01,2013-05-04 13:57:00,
2013-05-04 09:58:00,62.8,35.5,29.79,ESE,112,1.6,1.6,36,0.00,,OVC060,0.00,VWS V14.01,2013-05-04 13:58:00,
2013-05-04 09:59:00,62.8,35.5,29.80,SSE,158,2.7,2.7,36,0.00,,OVC060,0.00,VWS V14.01,2013-05-04 13:59:00,
2013-05-04 10:00:00,62.8,35.5,29.80,SSE,158,2.7,2.7,36,0.00,,OVC060,0.00,VWS V14.01,2013-05-04 14:00:00,
2013-05-04 10:01:00,63.3,35.2,29.76,ENE,68,2.5,2.7,35,0.00,,OVC060,0.00,VWS V14.01,2013-05-04 14:01:00,
2013-05-04 10:02:00,63.3,35.2,29.76,ENE,68,2.5,2.5,35,0.00,,OVC060,0.00,VWS V14.01,2013-05-04 14:02:00,
2013-05-04 10:03:00,63.3,35.2,29.76,SSE,158,5.6,5.6,35,0.00,,OVC060,0.00,VWS V14.01,2013-05-04 14:03:00,
2013-05-04 10:04:00,63.7,34.8,29.76,ESE,112,1.1,5.6,34,0.00,,OVC060,0.00,VWS V14.01,2013-05-04 14:04:00,
2013-05-04 10:05:00,63.7,34.8,29.76,ESE,112,3.8,3.8,34,0.00,,OVC060,0.00,VWS V14.01,2013-05-04 14:05:00,
2013-05-04 10:21:00,64.0,33.6,29.76,SSE,158,2.7,2.7,32,0.00,,OVC060,0.00,VWS V14.01,2013-05-04 14:21:00,
2013-05-04 10:22:00,63.1,32.8,29.76,SSE,158,2.7,2.7,32,0.00,,OVC060,0.00,VWS V14.01,2013-05-04 14:22:00,
2013-05-04 10:23:00,63.1,32.8,29.76,WNW,292,2.2,2.7,32,0.00,,OVC060,0.00,VWS V14.01,2013-05-04 14:23:00,
2013-05-04 10:24:00,63.1,31.2,29.76,West,270,4.7,4.7,30,0.00,,OVC060,0.00,VWS V14.01,2013-05-04 14:24:00,
2013-05-04 10:25:00,62.6,32.3,29.76,WSW,248,2.2,4.7,32,0.00,,OVC060,0.00,VWS V14.01,2013-05-04 14:25:00,
2013-05-04 10:26:00,62.6,32.3,29.76,SE,135,2.0,2.0,32,0.00,,OVC060,0.00,VWS V14.01,2013-05-04 14:26:00,
2013-05-04 10:27:00,62.6,32.3,29.76,ESE,112,2.0,2.0,32,0.00,,OVC060,0.00,VWS V14.01,2013-05-04 14:27:00,
2013-05-04 10:28:00,62.6,32.3,29.76,West,270,2.9,2.9,32,0.00,,OVC060,0.00,VWS V14.01,2013-05-04 14:28:00,
2013-05-04 10:29:00,64.2,33.0,29.76,WSW,248,0.0,2.9,31,0.00,,OVC060,0.00,VWS V14.01,2013-05-04 14:29:00,
2013-05-04 10:30:00,64.2,33.0,29.76,ESE,112,1.3,1.3,31,0.00,,OVC060,0.00,VWS V14.01,2013-05-04 14:30:00,
2013-05-04 10:31:00,64.9,33.6,29.76,NE,45,2.9,2.9,31,0.00,,OVC060,0.00,VWS V14.01,2013-05-04 14:31:00,
2013-05-04 10:32:00,65.3,30.5,29.76,ENE,68,3.4,3.4,27,0.00,,OVC060,0.00,VWS V14.01,2013-05-04 14:32:00,
2013-05-04 10:33:00,65.3,30.5,29.76,ENE,68,2.5,3.4,27,0.00,,OVC060,0.00,VWS V14.01,2013-05-04 14:33:00,
2013-05-04 10:35:00,65.3,30.5,29.76,ENE,68,2.5,2.5,27,0.00,,OVC060,0.00,VWS V14.01,2013-05-04 14:35:00,
2013-05-04 10:36:00,66.0,31.1,29.76,WSW,248,1.3,2.5,27,0.00,,OVC060,0.00,VWS V14.01,2013-05-04 14:36:00,
2013-05-04 10:37:00,66.0,31.1,29.76,ESE,112,0.0,1.3,27,0.00,,OVC060,0.00,VWS V14.01,2013-05-04 14:37:00,
2013-05-04 10:38:00,66.6,30.6,29.76,ESE,112,4.7,4.7,26,0.00,,OVC060,0.00,VWS V14.01,2013-05-04 14:38:00,
2013-05-04 10:39:00,66.6,30.6,29.76,ESE,112,4.9,4.9,26,0.00,,OVC060,0.00,VWS V14.01,2013-05-04 14:39:00,
2013-05-04 10:40:00,66.6,30.6,29.76,SW,225,2.7,4.9,26,0.00,,OVC060,0.00,VWS V14.01,2013-05-04 14:40:00,
2013-05-04 10:41:00,66.0,28.2,29.76,SSE,158,0.0,0.0,24,0.00,,OVC060,0.00,VWS V14.01,2013-05-04 14:41:00,
2013-05-04 10:42:00,66.0,28.2,29.76,NE,45,2.9,2.9,24,0.00,,OVC060,0.00,VWS V14.01,2013-05-04 14:42:00,
2013-05-04 10:43:00,66.4,28.5,29.76,ESE,112,2.5,2.9,24,0.00,,OVC060,0.00,VWS V14.01,2013-05-04 14:43:00,
2013-05-04 10:44:00,66.4,28.5,29.76,ESE,112,2.5,2.5,24,0.00,,OVC060,0.00,VWS V14.01,2013-05-04 14:44:00,
2013-05-04 10:45:00,66.7,28.8,29.76,ENE,68,2.7,2.7,24,0.00,,OVC060,0.00,VWS V14.01,2013-05-04 14:45:00,
2013-05-04 10:46:00,66.6,28.7,29.76,ENE,68,2.9,2.9,24,0.00,,OVC060,0.00,VWS V14.01,2013-05-04 14:46:00,
2013-05-04 10:47:00,66.6,28.7,29.76,ESE,112,2.5,2.9,24,0.00,,OVC060,0.00,VWS V14.01,2013-05-04 14:47:00,
2013-05-04 10:48:00,66.4,27.5,29.76,SE,135,3.8,3.8,23,0.00,,OVC060,0.00,VWS V14.01,2013-05-04 14:48:00,
2013-05-04 10:49:00,66.4,27.5,29.76,ENE,68,1.3,3.8,23,0.00,,OVC060,0.00,VWS V14.01,2013-05-04 14:49:00,
2013-05-04 10:50:00,66.4,28.5,29.76,ESE,112,0.0,1.3,24,0.00,,OVC060,0.00,VWS V14.01,2013-05-04 14:50:00,
2013-05-04 10:51:00,66.4,28.5,29.76,SSW,202,2.5,2.5,24,0.00,,OVC060,0.00,VWS V14.01,2013-05-04 14:51:00,
2013-05-04 10:52:00,66.4,28.5,29.76,SSW,202,2.5,2.5,24,0.00,,OVC060,0.00,VWS V14.01,2013-05-04 14:52:00,
2013-05-04 10:53:00,66.4,28.5,29.76,SSE,158,3.8,3.8,24,0.00,,OVC060,0.00,VWS V14.01,2013-05-04 14:53:00,
2013-05-04 10:54:00,66.4,27.5,29.76,SSE,158,2.0,3.8,23,0.00,,OVC060,0.00,VWS V14.01,2013-05-04 14:54:00,
2013-05-04 10:55:00,66.2,27.3,29.76,SSE,158,2.5,2.5,23,0.00,,OVC060,0.00,VWS V14.01,2013-05-04 14:55:00,
2013-05-04 10:56:00,66.2,27.3,29.76,ENE,68,1.1,2.5,23,0.00,,OVC060,0.00,VWS V14.01,2013-05-04 14:56:00,
2013-05-04 10:57:00,66.7,27.8,29.76,SSW,202,2.5,2.5,23,0.00,,OVC060,0.00,VWS V14.01,2013-05-04 14:57:00,
2013-05-04 10:58:00,66.7,27.8,29.76,SSW,202,2.5,2.5,23,0.00,,OVC060,0.00,VWS V14.01,2013-05-04 14:58:00,
2013-05-04 10:59:00,66.9,27.9,29.76,ENE,68,1.6,2.5,23,0.00,,OVC060,0.00,VWS V14.01,2013-05-04 14:59:00,
2013-05-04 11:00:00,66.9,27.9,29.76,ENE,68,2.7,2.7,23,0.00,,OVC060,0.00,VWS V14.01,2013-05-04 15:00:00,
2013-05-04 11:01:00,66.9,27.9,29.76,NNE,22,3.6,3.6,23,0.00,,OVC060,0.00,VWS V14.01,2013-05-04 15:01:00,
2013-05-04 11:02:00,66.7,27.8,29.76,NNE,22,2.9,3.6,23,0.00,,OVC060,0.00,VWS V14.01,2013-05-04 15:02:00,
2013-05-04 11:03:00,66.7,27.8,29.76,SSE,158,2.5,2.9,23,0.00,,OVC060,0.00,VWS V14.01,2013-05-04 15:03:00,
2013-05-04 11:04:00,66.7,27.8,29.76,SSW,202,1.6,2.5,23,0.00,,OVC060,0.00,VWS V14.01,2013-05-04 15:04:00,
2013-05-04 11:05:00,66.7,27.8,29.76,North,0,1.3,1.6,23,0.00,,OVC060,0.00,VWS V14.01,2013-05-04 15:05:00,
2013-05-04 11:06:00,66.9,27.9,29.76,SSE,158,2.0,2.0,23,0.00,,OVC060,0.00,VWS V14.01,2013-05-04 15:06:00,
2013-05-04 11:07:00,66.9,27.9,29.76,SSE,158,2.0,2.0,23,0.00,,OVC060,0.00,VWS V14.01,2013-05-04 15:07:00,
2013-05-04 11:08:00,66.9,27.9,29.76,East,90,2.2,2.2,23,0.00,,OVC060,0.00,VWS V14.01,2013-05-04 15:08:00,
2013-05-04 11:09:00,66.9,27.9,29.76,NNW,338,1.6,2.2,23,0.00,,OVC060,0.00,VWS V14.01,2013-05-04 15:09:00,
2013-05-04 11:10:00,66.9,27.9,29.76,NNE,22,2.9,2.9,23,0.00,,OVC060,0.00,VWS V14.01,2013-05-04 15:10:00,
2013-05-04 11:11:00,67.3,27.2,29.76,NNE,22,2.9,2.9,22,0.00,,OVC060,0.00,VWS V14.01,2013-05-04 15:11:00,
2013-05-04 11:12:00,67.3,27.2,29.76,NNE,22,2.9,2.9,22,0.00,,OVC060,0.00,VWS V14.01,2013-05-04 15:12:00,
2013-05-04 11:13:00,67.6,27.5,29.76,East,90,2.5,3.4,22,0.00,,OVC060,0.00,VWS V14.01,2013-05-04 15:13:00,
2013-05-04 11:14:00,67.6,27.5,29.76,East,90,2.5,2.5,22,0.00,,OVC060,0.00,VWS V14.01,2013-05-04 15:14:00,
2013-05-04 11:15:00,67.8,27.6,29.76,ENE,68,3.6,3.6,22,0.00,,OVC060,0.00,VWS V14.01,2013-05-04 15:15:00,
2013-05-04 11:16:00,67.8,27.6,29.74,ENE,68,3.6,3.6,22,0.00,,OVC060,0.00,VWS V14.01,2013-05-04 15:16:00,
2013-05-04 11:17:00,67.8,27.6,29.74,SSE,158,3.8,3.8,22,0.00,,OVC060,0.00,VWS V14.01,2013-05-04 15:17:00,
2013-05-04 11:18:00,68.2,25.6,29.74,SSE,158,3.1,3.8,20,0.00,,OVC060,0.00,VWS V14.01,2013-05-04 15:18:00,
2013-05-04 11:19:00,68.2,25.6,29.74,NE,45,4.3,4.3,20,0.00,,OVC060,0.00,VWS V14.01,2013-05-04 15:19:00,
2013-05-04 11:20:00,68.2,25.6,29.74,East,90,1.6,4.3,20,0.00,,OVC060,0.00,VWS V14.01,2013-05-04 15:20:00,
2013-05-04 11:21:00,68.2,25.6,29.74,ESE,112,0.0,1.3,20,0.00,,OVC060,0.00,VWS V14.01,2013-05-04 15:21:00,
2013-05-04 11:22:00,68.4,25.8,29.74,ESE,112,0.0,1.3,20,0.00,,OVC060,0.00,VWS V14.01,2013-05-04 15:22:00,
2013-05-04 11:23:00,68.4,25.8,29.74,SSW,202,2.7,2.7,20,0.00,,OVC060,0.00,VWS V14.01,2013-05-04 15:23:00,
2013-05-04 11:24:00,68.7,26.1,29.74,WNW,292,1.1,2.7,20,0.00,,OVC060,0.00,VWS V14.01,2013-05-04 15:24:00,
2013-05-04 11:25:00,67.8,25.3,29.74,SSE,158,1.1,1.1,20,0.00,,OVC060,0.00,VWS V14.01,2013-05-04 15:25:00,
2013-05-04 11:26:00,67.8,25.3,29.74,SSE,158,1.1,1.1,20,0.00,,OVC060,0.00,VWS V14.01,2013-05-04 15:26:00,
2013-05-04 11:27:00,68.5,25.9,29.74,SSW,202,1.6,1.6,20,0.00,,OVC060,0.00,VWS V14.01,2013-05-04 15:27:00,
2013-05-04 11:28:00,68.5,25.9,29.74,ENE,68,1.6,1.6,20,0.00,,OVC060,0.00,VWS V14.01,2013-05-04 15:28:00,
2013-05-04 11:29:00,68.5,25.9,29.74,SSW,202,1.6,1.6,20,0.00,,OVC060,0.00,VWS V14.01,2013-05-04 15:29:00,
2013-05-04 11:30:00,68.5,25.9,29.74,SSW,202,1.3,1.6,20,0.00,,OVC060,0.00,VWS V14.01,2013-05-04 15:30:00,
2013-05-04 11:31:00,68.5,25.9,29.74,South,180,3.4,3.4,20,0.00,,OVC060,0.00,VWS V14.01,2013-05-04 15:31:00,
2013-05-04 11:32:00,69.3,26.5,29.74,ESE,112,2.0,3.4,20,0.00,,OVC060,0.00,VWS V14.01,2013-05-04 15:32:00,
2013-05-04 11:33:00,69.3,26.5,29.74,SSE,158,3.6,3.6,20,0.00,,OVC060,0.00,VWS V14.01,2013-05-04 15:33:00,
2013-05-04 11:34:00,69.6,26.8,29.74,ESE,112,3.6,3.6,20,0.00,,OVC060,0.00,VWS V14.01,2013-05-04 15:34:00,
2013-05-04 11:35:00,69.6,26.8,29.74,ESE,112,1.1,3.6,20,0.00,,OVC060,0.00,VWS V14.01,2013-05-04 15:35:00,
2013-05-04 11:36:00,69.6,26.8,29.74,East,90,2.9,2.9,20,0.00,,OVC060,0.00,VWS V14.01,2013-05-04 15:36:00,
2013-05-04 11:37:00,69.6,26.8,29.74,East,90,2.9,2.9,20,0.00,,OVC060,0.00,VWS V14.01,2013-05-04 15:37:00,
2013-05-04 11:38:00,69.3,22.6,29.74,ENE,68,3.1,4.3,17,0.00,,OVC060,0.00,VWS V14.01,2013-05-04 15:38:00,
2013-05-04 11:39:00,69.3,22.6,29.74,SSE,158,2.5,3.1,17,0.00,,OVC060,0.00,VWS V14.01,2013-05-04 15:39:00,
2013-05-04 11:40:00,68.9,22.3,29.74,SSE,158,2.5,2.5,17,0.00,,OVC060,0.00,VWS V14.01,2013-05-04 15:40:00,
2013-05-04 11:41:00,68.9,22.3,29.74,SSE,158,2.5,2.5,17,0.00,,OVC060,0.00,VWS V14.01,2013-05-04 15:41:00,
2013-05-04 11:42:00,68.9,22.3,29.74,SSW,202,2.2,2.5,17,0.00,,OVC060,0.00,VWS V14.01,2013-05-04 15:42:00,
2013-05-04 11:43:00,68.9,22.3,29.74,SSW,202,2.2,2.2,17,0.00,,OVC060,0.00,VWS V14.01,2013-05-04 15:43:00,
2013-05-04 11:44:00,68.9,22.3,29.74,SSW,202,2.2,2.2,17,0.00,,OVC060,0.00,VWS V14.01,2013-05-04 15:44:00,
2013-05-04 11:45:00,68.9,22.3,29.74,SSW,202,2.2,2.2,17,0.00,,OVC060,0.00,VWS V14.01,2013-05-04 15:45:00,
2013-05-04 11:46:00,69.6,22.9,29.74,WSW,248,2.7,2.7,17,0.00,,OVC060,0.00,VWS V14.01,2013-05-04 15:46:00,
2013-05-04 11:47:00,69.6,22.9,29.74,WSW,248,2.7,2.7,17,0.00,,OVC060,0.00,VWS V14.01,2013-05-04 15:47:00,
2013-05-04 11:48:00,69.6,22.9,29.74,SSE,158,4.3,4.3,17,0.00,,OVC060,0.00,VWS V14.01,2013-05-04 15:48:00,
2013-05-04 11:49:00,69.6,22.9,29.74,ESE,112,3.8,4.3,17,0.00,,OVC060,0.00,VWS V14.01,2013-05-04 15:49:00,
2013-05-04 11:50:00,69.8,23.1,29.74,ESE,112,3.8,3.8,17,0.00,,OVC060,0.00,VWS V14.01,2013-05-04 15:50:00,
2013-05-04 11:51:00,69.8,23.1,29.74,ESE,112,3.8,3.8,17,0.00,,OVC060,0.00,VWS V14.01,2013-05-04 15:51:00,
2013-05-04 11:52:00,69.6,22.9,29.74,ESE,112,3.8,3.8,17,0.00,,OVC060,0.00,VWS V14.01,2013-05-04 15:52:00,
2013-05-04 11:53:00,69.6,22.9,29.74,SSE,158,2.5,3.8,17,0.00,,OVC060,0.00,VWS V14.01,2013-05-04 15:53:00,
2013-05-04 11:54:00,69.6,22.9,29.74,ESE,112,3.6,3.6,17,0.00,,OVC060,0.00,VWS V14.01,2013-05-04 15:54:00,
2013-05-04 11:55:00,69.6,22.9,29.74,ESE,112,3.1,3.6,17,0.00,,OVC060,0.00,VWS V14.01,2013-05-04 15:55:00,
2013-05-04 11:56:00,69.6,22.9,29.74,ESE,112,3.1,3.1,17,0.00,,OVC060,0.00,VWS V14.01,2013-05-04 15:56:00,
2013-05-04 11:57:00,69.6,22.9,29.74,SSE,158,3.1,3.1,17,0.00,,OVC060,0.00,VWS V14.01,2013-05-04 15:57:00,
2013-05-04 11:58:00,69.6,22.9,29.74,SSE,158,3.1,3.1,17,0.00,,OVC060,0.00,VWS V14.01,2013-05-04 15:58:00,
2013-05-04 11:59:00,70.9,23.9,29.74,WNW,292,2.9,3.1,17,0.00,,OVC060,0.00,VWS V14.01,2013-05-04 15:59:00,
2013-05-04 12:00:00,70.9,23.9,29.74,SSE,158,4.3,4.3,17,0.00,,OVC060,0.00,VWS V14.01,2013-05-04 16:00:00,
2013-05-04 12:01:00,70.9,23.9,29.74,SSW,202,4.0,4.3,17,0.00,,OVC060,0.00,VWS V14.01,2013-05-04 16:01:00,
2013-05-04 12:02:00,70.5,23.6,29.74,WSW,248,2.7,4.0,17,0.00,,OVC060,0.00,VWS V14.01,2013-05-04 16:02:00,
2013-05-04 12:03:00,70.5,23.6,29.74,SSE,158,3.6,3.6,17,0.00,,OVC060,0.00,VWS V14.01,2013-05-04 16:03:00,
2013-05-04 12:04:00,70.9,23.9,29.74,SE,135,1.6,3.6,17,0.00,,OVC060,0.00,VWS V14.01,2013-05-04 16:04:00,
2013-05-04 12:05:00,70.9,23.9,29.74,SW,225,2.7,2.7,17,0.00,,OVC060,0.00,VWS V14.01,2013-05-04 16:05:00,
2013-05-04 12:06:00,70.9,23.9,29.74,SSE,158,4.3,6.0,17,0.00,,OVC060,0.00,VWS V14.01,2013-05-04 16:06:00,
2013-05-04 12:07:00,70.9,23.9,29.74,SSE,158,4.9,6.0,17,0.00,,OVC060,0.00,VWS V14.01,2013-05-04 16:07:00,
2013-05-04 12:08:00,70.7,23.8,29.74,ENE,68,2.5,4.9,17,0.00,,OVC060,0.00,VWS V14.01,2013-05-04 16:08:00,
2013-05-04 12:09:00,70.7,23.8,29.74,SSE,158,2.7,2.7,17,0.00,,OVC060,0.00,VWS V14.01,2013-05-04 16:09:00,
2013-05-04 12:10:00,71.1,24.1,29.74,ESE,112,4.0,4.0,17,0.00,,OVC060,0.00,VWS V14.01,2013-05-04 16:10:00,
2013-05-04 12:11:00,70.7,23.8,29.74,ENE,68,4.3,4.3,17,0.00,,OVC060,0.00,VWS V14.01,2013-05-04 16:11:00,
2013-05-04 12:12:00,70.7,23.8,29.74,SSE,158,4.9,4.9,17,0.00,,OVC060,0.00,VWS V14.01,2013-05-04 16:12:00,
2013-05-04 12:13:00,70.5,23.6,29.74,SSE,158,4.9,4.9,17,0.00,,OVC060,0.00,VWS V14.01,2013-05-04 16:13:00,
2013-05-04 12:14:00,70.5,23.6,29.74,SSE,158,4.0,4.9,17,0.00,,OVC060,0.00,VWS V14.01,2013-05-04 16:14:00,
2013-05-04 12:15:00,70.5,23.6,29.74,ESE,112,3.8,4.0,17,0.00,,OVC060,0.00,VWS V14.01,2013-05-04 16:15:00,
2013-05-04 12:16:00,70.2,23.4,29.74,ESE,112,4.3,4.3,17,0.00,,OVC060,0.00,VWS V14.01,2013-05-04 16:16:00,
2013-05-04 12:17:00,70.2,23.4,29.74,ENE,68,2.7,4.3,17,0.00,,OVC060,0.00,VWS V14.01,2013-05-04 16:17:00,
2013-05-04 12:18:00,70.2,23.4,29.74,SE,135,2.0,2.7,17,0.00,,OVC060,0.00,VWS V14.01,2013-05-04 16:18:00,
2013-05-04 12:19:00,70.2,23.4,29.74,NE,45,1.3,2.0,17,0.00,,OVC060,0.00,VWS V14.01,2013-05-04 16:19:00,
2013-05-04 12:20:00,70.3,23.5,29.74,South,180,0.0,1.3,17,0.00,,OVC060,0.00,VWS V14.01,2013-05-04 16:20:00,
2013-05-04 12:21:00,70.3,23.5,29.74,West,270,3.8,3.8,17,0.00,,OVC060,0.00,VWS V14.01,2013-05-04 16:21:00,
2013-05-04 12:22:00,70.3,23.5,29.74,West,270,3.8,3.8,17,0.00,,OVC060,0.00,VWS V14.01,2013-05-04 16:22:00,
2013-05-04 12:23:00,70.3,23.5,29.74,SSW,202,1.6,3.8,17,0.00,,OVC060,0.00,VWS V14.01,2013-05-04 16:23:00,
2013-05-04 12:24:00,70.3,23.5,29.74,SSW,202,1.6,1.6,17,0.00,,OVC060,0.00,VWS V14.01,2013-05-04 16:24:00,
2013-05-04 12:25:00,70.3,23.5,29.74,SSW,202,1.6,1.6,17,0.00,,OVC060,0.00,VWS V14.01,2013-05-04 16:25:00,
2013-05-04 12:26:00,70.3,23.5,29.74,ESE,112,1.6,1.6,17,0.00,,OVC060,0.00,VWS V14.01,2013-05-04 16:26:00,
2013-05-04 12:27:00,70.2,23.4,29.74,ENE,68,2.0,2.0,17,0.00,,OVC060,0.00,VWS V14.01,2013-05-04 16:27:00,
2013-05-04 12:28:00,70.2,23.4,29.74,SSE,158,1.3,2.0,17,0.00,,OVC060,0.00,VWS V14.01,2013-05-04 16:28:00,
2013-05-04 12:29:00,70.2,23.4,29.74,SSE,158,5.8,5.8,17,0.00,,OVC060,0.00,VWS V14.01,2013-05-04 16:29:00,
2013-05-04 12:30:00,70.2,23.4,29.74,ESE,112,2.5,5.8,17,0.00,,OVC060,0.00,VWS V14.01,2013-05-04 16:30:00,
2013-05-04 12:31:00,70.2,23.4,29.74,ESE,112,4.3,4.3,17,0.00,,OVC060,0.00,VWS V14.01,2013-05-04 16:31:00,
2013-05-04 12:32:00,70.2,23.4,29.74,ESE,112,4.3,4.3,17,0.00,,OVC060,0.00,VWS V14.01,2013-05-04 16:32:00,
2013-05-04 12:33:00,70.5,23.6,29.74,ESE,112,4.3,4.3,17,0.00,,OVC060,0.00,VWS V14.01,2013-05-04 16:33:00,
2013-05-04 12:34:00,70.9,23.9,29.74,ENE,68,1.6,4.3,17,0.00,,OVC060,0.00,VWS V14.01,2013-05-04 16:34:00,
2013-05-04 12:35:00,70.9,23.9,29.74,WSW,248,4.0,4.0,17,0.00,,OVC060,0.00,VWS V14.01,2013-05-04 16:35:00,
2013-05-04 12:36:00,70.9,23.9,29.74,WSW,248,4.9,4.9,17,0.00,,OVC060,0.00,VWS V14.01,2013-05-04 16:36:00,
2013-05-04 12:37:00,70.9,23.9,29.74,SSW,202,3.8,4.9,17,0.00,,OVC060,0.00,VWS V14.01,2013-05-04 16:37:00,
2013-05-04 12:38:00,69.1,22.5,29.74,South,180,2.7,3.8,17,0.00,,OVC060,0.00,VWS V14.01,2013-05-04 16:38:00,
2013-05-04 12:39:00,69.1,22.5,29.74,WSW,248,1.1,2.7,17,0.00,,OVC060,0.00,VWS V14.01,2013-05-04 16:39:00,
2013-05-04 12:40:00,68.9,22.3,29.74,West,270,4.3,4.3,17,0.00,,OVC060,0.00,VWS V14.01,2013-05-04 16:40:00,
2013-05-04 12:41:00,68.9,22.3,29.74,SW,225,3.4,4.3,17,0.00,,OVC060,0.00,VWS V14.01,2013-05-04 16:41:00,
2013-05-04 12:42:00,68.9,22.3,29.74,SSW,202,2.7,3.4,17,0.00,,OVC060,0.00,VWS V14.01,2013-05-04 16:42:00,
2013-05-04 12:43:00,68.9,22.3,29.74,SSW,202,3.1,3.1,17,0.00,,OVC060,0.00,VWS V14.01,2013-05-04 16:43:00,
2013-05-04 12:44:00,68.9,22.3,29.74,SSW,202,5.6,5.6,17,0.00,,OVC060,0.00,VWS V14.01,2013-05-04 16:44:00,
2013-05-04 12:45:00,68.9,22.3,29.74,SSW,202,1.6,5.6,17,0.00,,OVC060,0.00,VWS V14.01,2013-05-04 16:45:00,
2013-05-04 12:46:00,68.9,22.3,29.71,WSW,248,3.1,3.1,17,0.00,,OVC060,0.00,VWS V14.01,2013-05-04 16:46:00,
2013-05-04 12:47:00,68.9,22.3,29.71,West,270,1.3,3.1,17,0.00,,OVC060,0.00,VWS V14.01,2013-05-04 16:47:00,
2013-05-04 12:48:00,68.0,21.6,29.71,ESE,112,2.5,2.5,17,0.00,,OVC060,0.00,VWS V14.01,2013-05-04 16:48:00,
2013-05-04 12:49:00,68.0,21.6,29.71,ESE,112,2.5,2.5,17,0.00,,OVC060,0.00,VWS V14.01,2013-05-04 16:49:00,
2013-05-04 12:50:00,68.9,22.3,29.71,South,180,4.0,4.0,17,0.00,,OVC060,0.00,VWS V14.01,2013-05-04 16:50:00,
2013-05-04 12:51:00,68.9,22.3,29.71,South,180,4.0,4.0,17,0.00,,OVC060,0.00,VWS V14.01,2013-05-04 16:51:00,
2013-05-04 12:52:00,68.9,22.3,29.71,SSE,158,2.0,2.0,17,0.00,,OVC060,0.00,VWS V14.01,2013-05-04 16:52:00,
2013-05-04 12:53:00,68.9,22.3,29.71,SE,135,4.0,4.0,17,0.00,,OVC060,0.00,VWS V14.01,2013-05-04 16:53:00,
2013-05-04 12:54:00,69.3,22.6,29.71,SE,135,2.0,4.0,17,0.00,,OVC060,0.00,VWS V14.01,2013-05-04 16:54:00,
2013-05-04 12:55:00,69.3,22.6,29.71,WNW,292,2.5,3.6,17,0.00,,OVC060,0.00,VWS V14.01,2013-05-04 16:55:00,
2013-05-04 12:56:00,69.3,22.6,29.71,NW,315,2.0,2.5,17,0.00,,OVC060,0.00,VWS V14.01,2013-05-04 16:56:00,
2013-05-04 12:57:00,69.3,22.6,29.71,SSW,202,2.9,2.9,17,0.00,,OVC060,0.00,VWS V14.01,2013-05-04 16:57:00,
2013-05-04 12:58:00,69.3,22.6,29.71,SSW,202,2.9,2.9,17,0.00,,OVC060,0.00,VWS V14.01,2013-05-04 16:58:00,
2013-05-04 12:59:00,69.1,22.5,29.71,ESE,112,1.3,2.9,17,0.00,,OVC060,0.00,VWS V14.01,2013-05-04 16:59:00,
2013-05-04 13:00:00,69.1,22.5,29.71,ENE,68,2.2,2.2,17,0.00,,OVC060,0.00,VWS V14.01,2013-05-04 17:00:00,
2013-05-04 13:01:00,69.6,22.9,29.71,ENE,68,3.1,3.1,17,0.00,,OVC060,0.00,VWS V14.01,2013-05-04 17:01:00,
2013-05-04 13:02:00,69.6,22.9,29.71,ENE,68,1.3,3.1,17,0.00,,OVC060,0.00,VWS V14.01,2013-05-04 17:02:00,
2013-05-04 13:03:00,69.6,22.9,29.71,ENE,68,2.0,2.0,17,0.00,,OVC060,0.00,VWS V14.01,2013-05-04 17:03:00,
2013-05-04 13:04:00,70.0,23.2,29.71,ESE,112,3.8,3.8,17,0.00,,OVC060,0.00,VWS V14.01,2013-05-04 17:04:00,
2013-05-04 13:05:00,70.0,23.2,29.71,WNW,292,4.0,4.0,17,0.00,,OVC060,0.00,VWS V14.01,2013-05-04 17:05:00,
2013-05-04 13:06:00,70.3,23.5,29.71,WSW,248,1.1,4.0,17,0.00,,OVC060,0.00,VWS V14.01,2013-05-04 17:06:00,
2013-05-04 13:07:00,70.3,23.5,29.71,SSE,158,6.3,6.3,17,0.00,,OVC060,0.00,VWS V14.01,2013-05-04 17:07:00,
2013-05-04 13:08:00,70.3,23.5,29.71,ENE,68,2.9,6.3,17,0.00,,OVC060,0.00,VWS V14.01,2013-05-04 17:08:00,
2013-05-04 13:09:00,70.3,23.5,29.71,SSW,202,2.0,2.9,17,0.00,,OVC060,0.00,VWS V14.01,2013-05-04 17:09:00,
2013-05-04 13:10:00,70.9,23.9,29.71,ESE,112,1.1,2.0,17,0.00,,OVC060,0.00,VWS V14.01,2013-05-04 17:10:00,
2013-05-04 13:11:00,71.1,24.1,29.71,South,180,2.7,2.7,17,0.00,,OVC060,0.00,VWS V14.01,2013-05-04 17:11:00,
2013-05-04 13:12:00,71.1,24.1,29.71,SSE,158,1.6,2.7,17,0.00,,OVC060,0.00,VWS V14.01,2013-05-04 17:12:00,
2013-05-04 13:13:00,71.1,24.1,29.71,NE,45,2.0,2.0,17,0.00,,OVC060,0.00,VWS V14.01,2013-05-04 17:13:00,
2013-05-04 13:14:00,71.1,24.1,29.71,SSE,158,2.7,2.7,17,0.00,,OVC060,0.00,VWS V14.01,2013-05-04 17:14:00,
2013-05-04 13:15:00,71.4,24.4,29.71,NE,45,2.9,2.9,17,0.00,,OVC060,0.00,VWS V14.01,2013-05-04 17:15:00,
2013-05-04 13:16:00,71.4,24.4,29.71,NE,45,2.9,2.9,17,0.00,,OVC060,0.00,VWS V14.01,2013-05-04 17:16:00,
2013-05-04 13:17:00,71.4,24.4,29.71,ENE,68,1.6,1.6,17,0.00,,OVC060,0.00,VWS V14.01,2013-05-04 17:17:00,
2013-05-04 13:18:00,71.1,24.1,29.71,SSW,202,2.0,2.0,17,0.00,,OVC060,0.00,VWS V14.01,2013-05-04 17:18:00,
2013-05-04 13:19:00,71.1,24.1,29.71,ENE,68,2.9,2.9,17,0.00,,OVC060,0.00,VWS V14.01,2013-05-04 17:19:00,
2013-05-04 13:20:00,71.1,24.1,29.71,ENE,68,3.1,3.1,17,0.00,,OVC060,0.00,VWS V14.01,2013-05-04 17:20:00,
2013-05-04 13:21:00,71.1,24.1,29.71,SSE,158,1.3,3.1,17,0.00,,OVC060,0.00,VWS V14.01,2013-05-04 17:21:00,
2013-05-04 13:22:00,71.2,24.2,29.71,ESE,112,3.4,3.4,17,0.00,,OVC060,0.00,VWS V14.01,2013-05-04 17:22:00,
2013-05-04 13:23:00,71.2,24.2,29.71,SSE,158,2.9,3.4,17,0.00,,OVC060,0.00,VWS V14.01,2013-05-04 17:23:00,
2013-05-04 13:24:00,71.6,23.1,29.71,SSW,202,3.1,3.1,16,0.00,,OVC060,0.00,VWS V14.01,2013-05-04 17:24:00,
2013-05-04 13:25:00,71.6,23.1,29.71,SSE,158,2.5,3.1,16,0.00,,OVC060,0.00,VWS V14.01,2013-05-04 17:25:00,
2013-05-04 13:26:00,71.6,23.1,29.71,WSW,248,1.3,2.5,16,0.00,,OVC060,0.00,VWS V14.01,2013-05-04 17:26:00,
2013-05-04 13:27:00,71.6,23.1,29.71,ENE,68,2.5,2.5,16,0.00,,OVC060,0.00,VWS V14.01,2013-05-04 17:27:00,
2013-05-04 13:28:00,71.6,23.1,29.71,SSE,158,3.1,3.1,16,0.00,,OVC060,0.00,VWS V14.01,2013-05-04 17:28:00,
2013-05-04 13:29:00,72.0,23.4,29.71,NNE,22,3.8,3.8,16,0.00,,OVC060,0.00,VWS V14.01,2013-05-04 17:29:00,
2013-05-04 13:30:00,72.0,23.4,29.71,SE,135,1.3,3.8,16,0.00,,OVC060,0.00,VWS V14.01,2013-05-04 17:30:00,
2013-05-04 13:31:00,72.1,23.5,29.71,East,90,1.6,1.6,16,0.00,,OVC060,0.00,VWS V14.01,2013-05-04 17:31:00,
2013-05-04 13:32:00,72.1,23.5,29.71,NNE,22,3.6,3.6,16,0.00,,OVC060,0.00,VWS V14.01,2013-05-04 17:32:00,
2013-05-04 13:33:00,72.1,23.5,29.71,ESE,112,2.5,3.6,16,0.00,,OVC060,0.00,VWS V14.01,2013-05-04 17:33:00,
2013-05-04 13:34:00,72.0,23.4,29.71,SSW,202,2.9,2.9,16,0.00,,OVC060,0.00,VWS V14.01,2013-05-04 17:34:00,
2013-05-04 13:35:00,72.0,23.4,29.71,WSW,248,0.9,2.9,16,0.00,,OVC060,0.00,VWS V14.01,2013-05-04 17:35:00,
2013-05-04 13:36:00,70.9,23.9,29.71,WSW,248,2.0,2.0,17,0.00,,OVC060,0.00,VWS V14.01,2013-05-04 17:36:00,
2013-05-04 13:37:00,70.9,23.9,29.71,SW,225,2.7,2.7,17,0.00,,OVC060,0.00,VWS V14.01,2013-05-04 17:37:00,
2013-05-04 13:38:00,70.9,23.9,29.71,West,270,1.3,2.7,17,0.00,,OVC060,0.00,VWS V14.01,2013-05-04 17:38:00,
2013-05-04 13:39:00,70.9,23.9,29.71,South,180,1.3,1.3,17,0.00,,OVC060,0.00,VWS V14.01,2013-05-04 17:39:00,
2013-05-04 13:40:00,71.2,24.2,29.71,ESE,112,2.0,2.0,17,0.00,,OVC060,0.00,VWS V14.01,2013-05-04 17:40:00,
2013-05-04 13:41:00,71.4,24.4,29.71,SSE,158,3.1,3.1,17,0.00,,OVC060,0.00,VWS V14.01,2013-05-04 17:41:00,
2013-05-04 13:42:00,71.4,24.4,29.71,NE,45,3.8,3.8,17,0.00,,OVC060,0.00,VWS V14.01,2013-05-04 17:42:00,
2013-05-04 13:43:00,71.4,24.4,29.71,ESE,112,3.4,3.8,17,0.00,,OVC060,0.00,VWS V14.01,2013-05-04 17:43:00,
2013-05-04 13:44:00,71.4,24.4,29.71,ESE,112,1.3,3.4,17,0.00,,OVC060,0.00,VWS V14.01,2013-05-04 17:44:00,
2013-05-04 13:45:00,71.4,24.4,29.71,ESE,112,1.3,1.3,17,0.00,,OVC060,0.00,VWS V14.01,2013-05-04 17:45:00,
2013-05-04 13:46:00,71.4,24.4,29.68,West,270,2.7,2.7,17,0.00,,OVC060,0.00,VWS V14.01,2013-05-04 17:46:00,
2013-05-04 13:47:00,70.7,23.8,29.68,North,0,1.3,2.7,17,0.00,,OVC060,0.00,VWS V14.01,2013-05-04 17:47:00,
2013-05-04 13:48:00,70.3,23.5,29.68,North,0,0.9,1.3,17,0.00,,OVC060,0.00,VWS V14.01,2013-05-04 17:48:00,
2013-05-04 13:49:00,70.3,23.5,29.68,ESE,112,2.7,2.7,17,0.00,,OVC060,0.00,VWS V14.01,2013-05-04 17:49:00,
2013-05-04 13:50:00,70.9,23.9,29.68,ENE,68,2.7,2.7,17,0.00,,OVC060,0.00,VWS V14.01,2013-05-04 17:50:00,
2013-05-04 13:51:00,70.9,23.9,29.68,NE,45,2.0,2.7,17,0.00,,OVC060,0.00,VWS V14.01,2013-05-04 17:51:00,
2013-05-04 13:52:00,70.9,23.9,29.68,ESE,112,2.5,2.5,17,0.00,,OVC060,0.00,VWS V14.01,2013-05-04 17:52:00,
2013-05-04 13:53:00,70.9,23.9,29.68,ENE,68,4.3,4.3,17,0.00,,OVC060,0.00,VWS V14.01,2013-05-04 17:53:00,
2013-05-04 13:54:00,70.7,23.8,29.68,East,90,3.4,4.3,17,0.00,,OVC060,0.00,VWS V14.01,2013-05-04 17:54:00,
2013-05-04 13:55:00,70.7,23.8,29.68,NE,45,3.4,3.4,17,0.00,,OVC060,0.00,VWS V14.01,2013-05-04 17:55:00,
2013-05-04 13:56:00,70.9,23.9,29.68,SSE,158,3.4,3.4,17,0.00,,OVC060,0.00,VWS V14.01,2013-05-04 17:56:00,
2013-05-04 13:57:00,70.9,23.9,29.68,East,90,2.7,3.4,17,0.00,,OVC060,0.00,VWS V14.01,2013-05-04 17:57:00,
2013-05-04 13:58:00,70.9,23.9,29.68,SSE,158,5.4,5.4,17,0.00,,OVC060,0.00,VWS V14.01,2013-05-04 17:58:00,
2013-05-04 13:59:00,71.1,24.1,29.68,SSE,158,3.6,5.4,17,0.00,,OVC060,0.00,VWS V14.01,2013-05-04 17:59:00,
2013-05-04 14:00:00,71.1,24.1,29.68,SSW,202,2.7,3.6,17,0.00,,OVC060,0.00,VWS V14.01,2013-05-04 18:00:00,
2013-05-04 14:01:00,71.1,24.1,29.68,ESE,112,2.5,2.7,17,0.00,,OVC060,0.00,VWS V14.01,2013-05-04 18:01:00,
2013-05-04 14:02:00,71.1,24.1,29.68,ESE,112,2.5,2.5,17,0.00,,OVC060,0.00,VWS V14.01,2013-05-04 18:02:00,
2013-05-04 14:03:00,71.2,24.2,29.68,ESE,112,3.8,3.8,17,0.00,,OVC060,0.00,VWS V14.01,2013-05-04 18:03:00,
2013-05-04 14:04:00,71.4,24.4,29.68,SSE,158,2.0,3.8,17,0.00,,OVC060,0.00,VWS V14.01,2013-05-04 18:04:00,
2013-05-04 14:05:00,71.4,24.4,29.68,SSE,158,4.3,4.3,17,0.00,,OVC060,0.00,VWS V14.01,2013-05-04 18:05:00,
2013-05-04 14:06:00,71.4,24.4,29.68,SSE,158,3.4,4.3,17,0.00,,OVC060,0.00,VWS V14.01,2013-05-04 18:06:00,
2013-05-04 14:07:00,71.4,24.4,29.68,SSE,158,3.4,3.4,17,0.00,,OVC060,0.00,VWS V14.01,2013-05-04 18:07:00,
2013-05-04 14:08:00,71.6,23.1,29.68,SSE,158,3.6,3.6,16,0.00,,OVC060,0.00,VWS V14.01,2013-05-04 18:08:00,
2013-05-04 14:09:00,71.6,23.1,29.68,SSE,158,3.6,4.9,16,0.00,,OVC060,0.00,VWS V14.01,2013-05-04 18:09:00,
2013-05-04 14:10:00,71.6,23.1,29.68,ESE,112,1.3,3.6,16,0.00,,OVC060,0.00,VWS V14.01,2013-05-04 18:10:00,
2013-05-04 14:11:00,71.8,23.2,29.68,ESE,112,2.9,2.9,16,0.00,,OVC060,0.00,VWS V14.01,2013-05-04 18:11:00,
2013-05-04 14:12:00,71.8,23.2,29.68,SSE,158,2.7,2.9,16,0.00,,OVC060,0.00,VWS V14.01,2013-05-04 18:12:00,
2013-05-04 14:13:00,71.8,23.2,29.68,SSE,158,3.8,3.8,16,0.00,,OVC060,0.00,VWS V14.01,2013-05-04 18:13:00,
2013-05-04 14:14:00,71.8,23.2,29.68,WSW,248,2.7,3.8,16,0.00,,OVC060,0.00,VWS V14.01,2013-05-04 18:14:00,
2013-05-04 14:15:00,72.0,23.4,29.68,South,180,2.5,2.7,16,0.00,,OVC060,0.00,VWS V14.01,2013-05-04 18:15:00,
2013-05-04 14:16:00,72.0,23.4,29.68,WSW,248,1.3,2.5,16,0.00,,OVC060,0.00,VWS V14.01,2013-05-04 18:16:00,
2013-05-04 14:17:00,72.0,23.4,29.68,SSE,158,0.9,1.3,16,0.00,,OVC060,0.00,VWS V14.01,2013-05-04 18:17:00,
2013-05-04 14:18:00,72.0,23.4,29.68,SE,135,3.6,3.6,16,0.00,,OVC060,0.00,VWS V14.01,2013-05-04 18:18:00,
2013-05-04 14:19:00,72.0,23.4,29.68,ENE,68,3.1,3.6,16,0.00,,OVC060,0.00,VWS V14.01,2013-05-04 18:19:00,
2013-05-04 14:20:00,72.1,23.5,29.68,East,90,2.5,3.1,16,0.00,,OVC060,0.00,VWS V14.01,2013-05-04 18:20:00,
2013-05-04 14:21:00,72.1,23.5,29.68,ENE,68,2.9,2.9,16,0.00,,OVC060,0.00,VWS V14.01,2013-05-04 18:21:00,
2013-05-04 14:22:00,72.1,23.5,29.68,East,90,1.6,2.9,16,0.00,,OVC060,0.00,VWS V14.01,2013-05-04 18:22:00,
2013-05-04 14:23:00,72.1,23.5,29.68,ENE,68,4.0,4.0,16,0.00,,OVC060,0.00,VWS V14.01,2013-05-04 18:23:00,
2013-05-04 14:24:00,72.1,23.5,29.68,SSW,202,1.3,4.0,16,0.00,,OVC060,0.00,VWS V14.01,2013-05-04 18:24:00,
2013-05-04 14:25:00,72.1,23.5,29.68,ENE,68,2.2,2.2,16,0.00,,OVC060,0.00,VWS V14.01,2013-05-04 18:25:00,
2013-05-04 14:26:00,72.1,23.5,29.68,SSE,158,2.5,2.5,16,0.00,,OVC060,0.00,VWS V14.01,2013-05-04 18:26:00,
2013-05-04 14:27:00,72.1,23.5,29.68,ENE,68,2.0,2.5,16,0.00,,OVC060,0.00,VWS V14.01,2013-05-04 18:27:00,
2013-05-04 14:28:00,72.1,23.5,29.68,SSE,158,2.0,2.0,16,0.00,,OVC060,0.00,VWS V14.01,2013-05-04 18:28:00,
2013-05-04 14:29:00,72.1,23.5,29.68,East,90,2.7,2.7,16,0.00,,OVC060,0.00,VWS V14.01,2013-05-04 18:29:00,
2013-05-04 14:30:00,72.1,23.5,29.68,ESE,112,2.2,2.7,16,0.00,,OVC060,0.00,VWS V14.01,2013-05-04 18:30:00,
2013-05-04 14:31:00,72.1,23.5,29.68,ENE,68,4.5,4.5,16,0.00,,OVC060,0.00,VWS V14.01,2013-05-04 18:31:00,
2013-05-04 14:32:00,72.1,23.5,29.68,ESE,112,1.6,4.5,16,0.00,,OVC060,0.00,VWS V14.01,2013-05-04 18:32:00,
2013-05-04 14:33:00,72.0,23.4,29.68,ESE,112,1.6,1.6,16,0.00,,OVC060,0.00,VWS V14.01,2013-05-04 18:33:00,
2013-05-04 14:34:00,72.0,23.4,29.68,SSE,158,3.1,3.1,16,0.00,,OVC060,0.00,VWS V14.01,2013-05-04 18:34:00,
2013-05-04 14:35:00,72.0,23.4,29.68,SSE,158,1.3,3.1,16,0.00,,OVC060,0.00,VWS V14.01,2013-05-04 18:35:00,
2013-05-04 14:36:00,72.0,23.4,29.68,SSE,158,2.7,2.7,16,0.00,,OVC060,0.00,VWS V14.01,2013-05-04 18:36:00,
2013-05-04 14:37:00,72.0,23.4,29.68,SSW,202,2.5,2.7,16,0.00,,OVC060,0.00,VWS V14.01,2013-05-04 18:37:00,
2013-05-04 14:38:00,72.1,23.5,29.68,South,180,0.9,2.5,16,0.00,,OVC060,0.00,VWS V14.01,2013-05-04 18:38:00,
2013-05-04 14:39:00,72.1,23.5,29.68,SSW,202,0.0,0.9,16,0.00,,OVC060,0.00,VWS V14.01,2013-05-04 18:39:00,
2013-05-04 14:40:00,72.3,23.6,29.68,East,90,0.9,0.9,16,0.00,,OVC060,0.00,VWS V14.01,2013-05-04 18:40:00,
2013-05-04 14:41:00,72.1,23.5,29.68,WNW,292,2.2,2.2,16,0.00,,OVC060,0.00,VWS V14.01,2013-05-04 18:41:00,
2013-05-04 14:42:00,72.1,23.5,29.68,WSW,248,1.6,2.2,16,0.00,,OVC060,0.00,VWS V14.01,2013-05-04 18:42:00,
2013-05-04 14:43:00,72.3,23.6,29.68,SE,135,1.1,1.6,16,0.00,,OVC060,0.00,VWS V14.01,2013-05-04 18:43:00,
2013-05-04 14:44:00,72.3,23.6,29.68,West,270,1.3,1.3,16,0.00,,OVC060,0.00,VWS V14.01,2013-05-04 18:44:00,
2013-05-04 14:45:00,72.3,23.6,29.68,WSW,248,1.6,1.6,16,0.00,,OVC060,0.00,VWS V14.01,2013-05-04 18:45:00,
2013-05-04 14:46:00,72.3,23.6,29.68,WSW,248,1.6,1.6,16,0.00,,OVC060,0.00,VWS V14.01,2013-05-04 18:46:00,
2013-05-04 14:47:00,72.3,23.6,29.68,WSW,248,3.8,3.8,16,0.00,,OVC060,0.00,VWS V14.01,2013-05-04 18:47:00,
2013-05-04 14:48:00,72.3,23.6,29.68,WSW,248,3.8,3.8,16,0.00,,OVC060,0.00,VWS V14.01,2013-05-04 18:48:00,
2013-05-04 14:49:00,72.1,20.4,29.68,SSE,158,2.0,3.8,14,0.00,,OVC060,0.00,VWS V14.01,2013-05-04 18:49:00,
2013-05-04 14:50:00,72.1,20.4,29.68,NE,45,2.7,2.7,14,0.00,,OVC060,0.00,VWS V14.01,2013-05-04 18:50:00,
2013-05-04 14:51:00,72.1,20.4,29.68,NE,45,2.7,2.7,14,0.00,,OVC060,0.00,VWS V14.01,2013-05-04 18:51:00,
2013-05-04 14:52:00,72.0,20.2,29.68,ESE,112,2.5,3.4,14,0.00,,OVC060,0.00,VWS V14.01,2013-05-04 18:52:00,
2013-05-04 14:53:00,72.0,20.2,29.68,ESE,112,6.5,6.5,14,0.00,,OVC060,0.00,VWS V14.01,2013-05-04 18:53:00,
2013-05-04 14:54:00,71.8,20.1,29.68,ESE,112,2.5,6.5,14,0.00,,OVC060,0.00,VWS V14.01,2013-05-04 18:54:00,
2013-05-04 14:55:00,71.8,20.1,29.68,ENE,68,2.7,2.7,14,0.00,,OVC060,0.00,VWS V14.01,2013-05-04 18:55:00,
2013-05-04 14:56:00,71.8,20.1,29.68,SSE,158,0.0,2.7,14,0.00,,OVC060,0.00,VWS V14.01,2013-05-04 18:56:00,
2013-05-04 14:57:00,71.8,20.1,29.68,SW,225,2.0,2.0,14,0.00,,OVC060,0.00,VWS V14.01,2013-05-04 18:57:00,
2013-05-04 14:58:00,71.8,20.1,29.68,SSE,158,1.3,2.0,14,0.00,,OVC060,0.00,VWS V14.01,2013-05-04 18:58:00,
2013-05-04 14:59:00,71.8,20.1,29.68,SSE,158,1.3,1.3,14,0.00,,OVC060,0.00,VWS V14.01,2013-05-04 18:59:00,
2013-05-04 15:00:00,71.8,20.1,29.68,SSE,158,3.4,3.4,14,0.00,,OVC060,0.00,VWS V14.01,2013-05-04 19:00:00,
2013-05-04 15:01:00,71.8,20.1,29.68,SSE,158,3.4,3.4,14,0.00,,OVC060,0.00,VWS V14.01,2013-05-04 19:01:00,
2013-05-04 15:02:00,71.8,20.1,29.68,SSE,158,4.0,4.0,14,0.00,,OVC060,0.00,VWS V14.01,2013-05-04 19:02:00,
2013-05-04 15:03:00,71.6,19.9,29.68,ENE,68,3.4,4.0,14,0.00,,OVC060,0.00,VWS V14.01,2013-05-04 19:03:00,
2013-05-04 15:04:00,71.6,19.9,29.68,ENE,68,3.4,3.4,14,0.00,,OVC060,0.00,VWS V14.01,2013-05-04 19:04:00,
2013-05-04 15:05:00,71.6,19.9,29.68,SSE,158,2.2,3.4,14,0.00,,OVC060,0.00,VWS V14.01,2013-05-04 19:05:00,
2013-05-04 15:06:00,71.6,19.9,29.68,SSE,158,2.2,2.2,14,0.00,,OVC060,0.00,VWS V14.01,2013-05-04 19:06:00,
2013-05-04 15:07:00,71.6,19.9,29.68,WSW,248,2.5,3.8,14,0.00,,OVC060,0.00,VWS V14.01,2013-05-04 19:07:00,
2013-05-04 15:08:00,71.6,19.9,29.68,SE,135,3.6,3.6,14,0.00,,OVC060,0.00,VWS V14.01,2013-05-04 19:08:00,
2013-05-04 15:09:00,71.6,19.9,29.65,ESE,112,3.4,3.6,14,0.00,,OVC060,0.00,VWS V14.01,2013-05-04 19:09:00,
2013-05-04 15:10:00,71.6,19.9,29.65,SSE,158,3.8,3.8,14,0.00,,OVC060,0.00,VWS V14.01,2013-05-04 19:10:00,
2013-05-04 15:11:00,71.6,19.9,29.65,ESE,112,2.5,3.8,14,0.00,,OVC060,0.00,VWS V14.01,2013-05-04 19:11:00,
2013-05-04 15:12:00,71.6,19.9,29.65,SSE,158,3.4,3.4,14,0.00,,OVC060,0.00,VWS V14.01,2013-05-04 19:12:00,
2013-05-04 15:13:00,71.6,19.9,29.65,ENE,68,2.5,3.4,14,0.00,,OVC060,0.00,VWS V14.01,2013-05-04 19:13:00,
2013-05-04 15:14:00,71.6,19.9,29.65,ENE,68,2.5,2.5,14,0.00,,OVC060,0.00,VWS V14.01,2013-05-04 19:14:00,
2013-05-04 15:15:00,71.6,19.9,29.65,WSW,248,3.1,3.1,14,0.00,,OVC060,0.00,VWS V14.01,2013-05-04 19:15:00,
2013-05-04 15:16:00,71.6,19.9,29.65,SSW,202,0.0,3.1,14,0.00,,OVC060,0.00,VWS V14.01,2013-05-04 19:16:00,
2013-05-04 15:17:00,71.4,19.8,29.65,North,0,0.0,0.0,14,0.00,,OVC060,0.00,VWS V14.01,2013-05-04 19:17:00,
2013-05-04 15:18:00,71.4,19.8,29.65,ENE,68,2.9,2.9,14,0.00,,OVC060,0.00,VWS V14.01,2013-05-04 19:18:00,
2013-05-04 15:19:00,71.6,19.9,29.65,ENE,68,1.1,2.9,14,0.00,,OVC060,0.00,VWS V14.01,2013-05-04 19:19:00,
2013-05-04 15:20:00,71.6,19.9,29.65,South,180,2.7,2.7,14,0.00,,OVC060,0.00,VWS V14.01,2013-05-04 19:20:00,
2013-05-04 15:21:00,71.6,19.9,29.65,SSE,158,2.9,2.9,14,0.00,,OVC060,0.00,VWS V14.01,2013-05-04 19:21:00,
2013-05-04 15:22:00,71.8,20.1,29.65,SSE,158,3.1,3.1,14,0.00,,OVC060,0.00,VWS V14.01,2013-05-04 19:22:00,
2013-05-04 15:23:00,71.8,20.1,29.65,ESE,112,0.0,3.1,14,0.00,,OVC060,0.00,VWS V14.01,2013-05-04 19:23:00,
2013-05-04 15:24:00,71.8,20.1,29.65,SSW,202,3.6,3.6,14,0.00,,OVC060,0.00,VWS V14.01,2013-05-04 19:24:00,
2013-05-04 15:25:00,71.8,20.1,29.65,SSE,158,1.3,3.6,14,0.00,,OVC060,0.00,VWS V14.01,2013-05-04 19:25:00,
2013-05-04 15:26:00,71.8,20.1,29.65,SSE,158,2.7,2.7,14,0.00,,OVC060,0.00,VWS V14.01,2013-05-04 19:26:00,
2013-05-04 15:27:00,72.5,23.8,29.65,SSE,158,1.6,2.7,16,0.00,,OVC060,0.00,VWS V14.01,2013-05-04 19:27:00,
2013-05-04 15:28:00,72.5,23.8,29.65,SSE,158,0.9,1.6,16,0.00,,OVC060,0.00,VWS V14.01,2013-05-04 19:28:00,
2013-05-04 15:29:00,73.0,24.2,29.65,ENE,68,0.0,0.9,16,0.00,,OVC060,0.00,VWS V14.01,2013-05-04 19:29:00,
2013-05-04 15:30:00,73.0,24.2,29.65,ESE,112,1.6,2.5,16,0.00,,OVC060,0.00,VWS V14.01,2013-05-04 19:30:00,
2013-05-04 15:31:00,73.4,24.5,29.65,ESE,112,1.6,1.6,16,0.00,,OVC060,0.00,VWS V14.01,2013-05-04 19:31:00,
2013-05-04 15:32:00,73.4,24.5,29.65,ENE,68,2.5,2.5,16,0.00,,OVC060,0.00,VWS V14.01,2013-05-04 19:32:00,
2013-05-04 15:33:00,73.4,24.5,29.65,ENE,68,2.5,2.5,16,0.00,,OVC060,0.00,VWS V14.01,2013-05-04 19:33:00,
2013-05-04 15:34:00,73.4,24.5,29.65,East,90,1.6,2.5,16,0.00,,OVC060,0.00,VWS V14.01,2013-05-04 19:34:00,
2013-05-04 15:35:00,73.4,24.5,29.65,ENE,68,3.8,3.8,16,0.00,,OVC060,0.00,VWS V14.01,2013-05-04 19:35:00,
2013-05-04 15:36:00,73.4,24.5,29.65,ENE,68,3.8,3.8,16,0.00,,OVC060,0.00,VWS V14.01,2013-05-04 19:36:00,
2013-05-04 15:37:00,73.4,24.5,29.65,SSE,158,2.7,3.8,16,0.00,,OVC060,0.00,VWS V14.01,2013-05-04 19:37:00,
2013-05-04 15:38:00,73.6,24.7,29.65,SSW,202,3.4,3.4,16,0.00,,OVC060,0.00,VWS V14.01,2013-05-04 19:38:00,
2013-05-04 15:39:00,73.6,24.7,29.65,SSE,158,3.6,3.6,16,0.00,,OVC060,0.00,VWS V14.01,2013-05-04 19:39:00,
2013-05-04 15:40:00,73.4,24.5,29.65,ENE,68,1.3,3.6,16,0.00,,OVC060,0.00,VWS V14.01,2013-05-04 19:40:00,
2013-05-04 15:41:00,73.4,24.5,29.65,East,90,2.5,2.5,16,0.00,,OVC060,0.00,VWS V14.01,2013-05-04 19:41:00,
2013-05-04 15:42:00,73.4,24.5,29.65,ESE,112,5.8,5.8,16,0.00,,OVC060,0.00,VWS V14.01,2013-05-04 19:42:00,
2013-05-04 15:43:00,72.9,20.9,29.65,ESE,112,4.0,5.8,14,0.00,,OVC060,0.00,VWS V14.01,2013-05-04 19:43:00,
2013-05-04 15:44:00,72.9,20.9,29.65,ENE,68,3.6,4.0,14,0.00,,OVC060,0.00,VWS V14.01,2013-05-04 19:44:00,
2013-05-04 15:45:00,72.9,20.9,29.65,SSE,158,1.6,3.6,14,0.00,,OVC060,0.00,VWS V14.01,2013-05-04 19:45:00,
2013-05-04 15:46:00,72.9,20.9,29.62,SSW,202,4.3,4.3,14,0.00,,OVC060,0.00,VWS V14.01,2013-05-04 19:46:00,
2013-05-04 15:47:00,72.9,20.9,29.62,SSW,202,4.3,4.3,14,0.00,,OVC060,0.00,VWS V14.01,2013-05-04 19:47:00,
2013-05-04 15:48:00,72.9,20.9,29.62,ESE,112,3.4,4.3,14,0.00,,OVC060,0.00,VWS V14.01,2013-05-04 19:48:00,
2013-05-04 15:49:00,72.9,20.9,29.62,WSW,248,0.0,3.4,14,0.00,,OVC060,0.00,VWS V14.01,2013-05-04 19:49:00,
2013-05-04 15:50:00,73.0,21.1,29.62,SSE,158,0.0,0.0,14,0.00,,OVC060,0.00,VWS V14.01,2013-05-04 19:50:00,
2013-05-04 15:51:00,73.0,21.1,29.62,NNE,22,3.6,3.6,14,0.00,,OVC060,0.00,VWS V14.01,2013-05-04 19:51:00,
2013-05-04 15:52:00,73.2,24.4,29.62,SSE,158,2.5,3.6,16,0.00,,OVC060,0.00,VWS V14.01,2013-05-04 19:52:00,
2013-05-04 15:53:00,73.2,24.4,29.62,ESE,112,3.8,3.8,16,0.00,,OVC060,0.00,VWS V14.01,2013-05-04 19:53:00,
2013-05-04 15:54:00,73.0,24.2,29.62,ESE,112,3.1,3.8,16,0.00,,OVC060,0.00,VWS V14.01,2013-05-04 19:54:00,
2013-05-04 15:55:00,73.0,24.2,29.62,ENE,68,3.4,3.4,16,0.00,,OVC060,0.00,VWS V14.01,2013-05-04 19:55:00,
2013-05-04 15:56:00,73.0,24.2,29.62,ESE,112,1.1,3.4,16,0.00,,OVC060,0.00,VWS V14.01,2013-05-04 19:56:00,
2013-05-04 15:57:00,73.6,24.7,29.62,ESE,112,3.8,3.8,16,0.00,,OVC060,0.00,VWS V14.01,2013-05-04 19:57:00,
2013-05-04 15:58:00,73.6,24.7,29.62,ESE,112,3.4,3.8,16,0.00,,OVC060,0.00,VWS V14.01,2013-05-04 19:58:00,
2013-05-04 15:59:00,73.8,24.8,29.62,SSE,158,1.1,3.4,16,0.00,,OVC060,0.00,VWS V14.01,2013-05-04 19:59:00,
2013-05-04 16:00:00,73.8,24.8,29.62,ENE,68,2.2,2.2,16,0.00,,OVC060,0.00,VWS V14.01,2013-05-04 20:00:00,
2013-05-04 16:01:00,73.8,24.8,29.62,SE,135,1.6,2.2,16,0.00,,OVC060,0.00,VWS V14.01,2013-05-04 20:01:00,
2013-05-04 16:02:00,73.8,24.8,29.62,SSE,158,1.6,1.6,16,0.00,,OVC060,0.00,VWS V14.01,2013-05-04 20:02:00,
2013-05-04 16:03:00,74.5,25.4,29.62,SSE,158,2.7,2.7,16,0.00,,OVC060,0.00,VWS V14.01,2013-05-04 20:03:00,
2013-05-04 16:04:00,74.5,25.4,29.62,ESE,112,3.8,3.8,16,0.00,,OVC060,0.00,VWS V14.01,2013-05-04 20:04:00,
2013-05-04 16:05:00,74.3,25.2,29.62,ENE,68,2.7,3.8,16,0.00,,OVC060,0.00,VWS V14.01,2013-05-04 20:05:00,
2013-05-04 16:06:00,74.3,25.2,29.62,ESE,112,2.9,2.9,16,0.00,,OVC060,0.00,VWS V14.01,2013-05-04 20:06:00,
2013-05-04 16:07:00,74.3,25.2,29.62,ENE,68,2.2,2.9,16,0.00,,OVC060,0.00,VWS V14.01,2013-05-04 20:07:00,
2013-05-04 16:08:00,74.3,25.2,29.62,NE,45,1.6,2.2,16,0.00,,OVC060,0.00,VWS V14.01,2013-05-04 20:08:00,
2013-05-04 16:09:00,74.3,25.2,29.62,WSW,248,2.2,2.2,16,0.00,,OVC060,0.00,VWS V14.01,2013-05-04 20:09:00,
2013-05-04 16:10:00,74.1,25.1,29.62,ESE,112,3.1,3.1,16,0.00,,OVC060,0.00,VWS V14.01,2013-05-04 20:10:00,
2013-05-04 16:11:00,74.1,25.1,29.62,West,270,2.5,3.1,16,0.00,,OVC060,0.00,VWS V14.01,2013-05-04 20:11:00,
2013-05-04 16:12:00,73.9,25.0,29.62,SSE,158,2.9,3.1,16,0.00,,OVC060,0.00,VWS V14.01,2013-05-04 20:12:00,
2013-05-04 16:13:00,73.9,25.0,29.62,SSW,202,3.8,3.8,16,0.00,,OVC060,0.00,VWS V14.01,2013-05-04 20:13:00,
2013-05-04 16:14:00,73.9,25.0,29.62,East,90,2.7,3.8,16,0.00,,OVC060,0.00,VWS V14.01,2013-05-04 20:14:00,
2013-05-04 16:15:00,73.9,25.0,29.62,ESE,112,2.9,2.9,16,0.00,,OVC060,0.00,VWS V14.01,2013-05-04 20:15:00,
2013-05-04 16:16:00,73.9,25.0,29.62,SE,135,3.1,3.1,16,0.00,,OVC060,0.00,VWS V14.01,2013-05-04 20:16:00,
2013-05-04 16:17:00,74.1,25.1,29.62,ESE,112,2.2,3.1,16,0.00,,OVC060,0.00,VWS V14.01,2013-05-04 20:17:00,
2013-05-04 16:18:00,74.1,25.1,29.62,SSE,158,2.5,2.5,16,0.00,,OVC060,0.00,VWS V14.01,2013-05-04 20:18:00,
2013-05-04 16:19:00,74.1,25.1,29.62,NNW,338,1.6,2.5,16,0.00,,OVC060,0.00,VWS V14.01,2013-05-04 20:19:00,
2013-05-04 16:20:00,74.1,25.1,29.62,WNW,292,4.0,4.0,16,0.00,,OVC060,0.00,VWS V14.01,2013-05-04 20:20:00,
2013-05-04 16:21:00,74.1,25.1,29.62,East,90,1.6,4.0,16,0.00,,OVC060,0.00,VWS V14.01,2013-05-04 20:21:00,
2013-05-04 16:22:00,74.1,25.1,29.62,SSE,158,1.3,1.6,16,0.00,,OVC060,0.00,VWS V14.01,2013-05-04 20:22:00,
2013-05-04 16:23:00,74.1,25.1,29.62,ESE,112,1.6,1.6,16,0.00,,OVC060,0.00,VWS V14.01,2013-05-04 20:23:00,
2013-05-04 16:24:00,74.5,25.4,29.62,SSE,158,1.6,1.6,16,0.00,,OVC060,0.00,VWS V14.01,2013-05-04 20:24:00,
2013-05-04 16:25:00,74.5,25.4,29.62,ENE,68,3.4,3.4,16,0.00,,OVC060,0.00,VWS V14.01,2013-05-04 20:25:00,
2013-05-04 16:26:00,74.5,25.4,29.62,ENE,68,3.4,3.4,16,0.00,,OVC060,0.00,VWS V14.01,2013-05-04 20:26:00,
2013-05-04 16:27:00,74.5,25.4,29.62,SE,135,1.6,1.6,16,0.00,,OVC060,0.00,VWS V14.01,2013-05-04 20:27:00,
2013-05-04 16:28:00,74.5,25.4,29.62,SE,135,1.6,1.6,16,0.00,,OVC060,0.00,VWS V14.01,2013-05-04 20:28:00,
2013-05-04 16:29:00,74.8,25.7,29.62,ESE,112,2.0,2.0,16,0.00,,OVC060,0.00,VWS V14.01,2013-05-04 20:29:00,
2013-05-04 16:30:00,74.8,25.7,29.62,WNW,292,3.4,3.4,16,0.00,,OVC060,0.00,VWS V14.01,2013-05-04 20:30:00,
2013-05-04 16:31:00,74.7,25.5,29.62,SSW,202,5.4,5.4,16,0.00,,OVC060,0.00,VWS V14.01,2013-05-04 20:31:00,
2013-05-04 16:32:00,74.7,25.5,29.62,ESE,112,3.6,5.4,16,0.00,,OVC060,0.00,VWS V14.01,2013-05-04 20:32:00,
2013-05-04 16:33:00,74.7,25.5,29.62,SE,135,3.1,3.6,16,0.00,,OVC060,0.00,VWS V14.01,2013-05-04 20:33:00,
2013-05-04 16:34:00,74.7,25.5,29.62,SSW,202,0.0,3.1,16,0.00,,OVC060,0.00,VWS V14.01,2013-05-04 20:34:00,
2013-05-04 16:35:00,74.3,25.2,29.62,SSW,202,1.3,1.3,16,0.00,,OVC060,0.00,VWS V14.01,2013-05-04 20:35:00,
2013-05-04 16:36:00,74.5,25.4,29.62,SSW,202,1.3,1.3,16,0.00,,OVC060,0.00,VWS V14.01,2013-05-04 20:36:00,
2013-05-04 16:37:00,74.5,25.4,29.62,SSW,202,2.0,2.0,16,0.00,,OVC060,0.00,VWS V14.01,2013-05-04 20:37:00,
2013-05-04 16:38:00,74.5,25.4,29.62,ENE,68,1.3,2.5,16,0.00,,OVC060,0.00,VWS V14.01,2013-05-04 20:38:00,
2013-05-04 16:39:00,74.5,25.4,29.62,ENE,68,3.4,3.4,16,0.00,,OVC060,0.00,VWS V14.01,2013-05-04 20:39:00,
2013-05-04 16:40:00,74.5,25.4,29.62,SSW,202,1.3,3.4,16,0.00,,OVC060,0.00,VWS V14.01,2013-05-04 20:40:00,
2013-05-04 16:41:00,74.5,25.4,29.62,West,270,2.7,2.7,16,0.00,,OVC060,0.00,VWS V14.01,2013-05-04 20:41:00,
2013-05-04 16:42:00,73.9,25.0,29.62,South,180,1.6,2.7,16,0.00,,OVC060,0.00,VWS V14.01,2013-05-04 20:42:00,
2013-05-04 16:43:00,73.8,19.9,29.62,SSE,158,1.3,2.2,13,0.00,,OVC060,0.00,VWS V14.01,2013-05-04 20:43:00,
2013-05-04 16:44:00,73.8,19.9,29.62,North,0,0.9,1.3,13,0.00,,OVC060,0.00,VWS V14.01,2013-05-04 20:44:00,
2013-05-04 16:45:00,73.8,19.9,29.62,North,0,0.9,0.9,13,0.00,,OVC060,0.00,VWS V14.01,2013-05-04 20:45:00,
2013-05-04 16:46:00,73.8,19.9,29.62,North,0,0.9,0.9,13,0.00,,OVC060,0.00,VWS V14.01,2013-05-04 20:46:00,
2013-05-04 16:47:00,73.9,20.0,29.62,WSW,248,1.6,2.9,13,0.00,,OVC060,0.00,VWS V14.01,2013-05-04 20:47:00,
2013-05-04 16:48:00,73.9,20.0,29.62,SSW,202,2.9,2.9,13,0.00,,OVC060,0.00,VWS V14.01,2013-05-04 20:48:00,
2013-05-04 16:49:00,73.4,19.6,29.62,SSW,202,2.5,2.9,13,0.00,,OVC060,0.00,VWS V14.01,2013-05-04 20:49:00,
2013-05-04 16:50:00,73.4,19.6,29.62,SSE,158,2.5,2.5,13,0.00,,OVC060,0.00,VWS V14.01,2013-05-04 20:50:00,
2013-05-04 16:51:00,73.4,19.6,29.62,ESE,112,1.3,2.5,13,0.00,,OVC060,0.00,VWS V14.01,2013-05-04 20:51:00,
2013-05-04 16:52:00,73.4,19.6,29.62,ESE,112,3.1,3.1,13,0.00,,OVC060,0.00,VWS V14.01,2013-05-04 20:52:00,
2013-05-04 16:53:00,73.4,19.6,29.62,ESE,112,2.7,3.1,13,0.00,,OVC060,0.00,VWS V14.01,2013-05-04 20:53:00,
2013-05-04 16:54:00,73.2,21.2,29.62,ENE,68,3.1,3.1,14,0.00,,OVC060,0.00,VWS V14.01,2013-05-04 20:54:00,
2013-05-04 16:55:00,73.2,21.2,29.62,SSE,158,1.6,3.1,14,0.00,,OVC060,0.00,VWS V14.01,2013-05-04 20:55:00,
2013-05-04 16:56:00,73.0,21.1,29.62,ESE,112,2.9,2.9,14,0.00,,OVC060,0.00,VWS V14.01,2013-05-04 20:56:00,
2013-05-04 16:57:00,73.0,21.1,29.62,SSE,158,1.6,2.9,14,0.00,,OVC060,0.00,VWS V14.01,2013-05-04 20:57:00,
2013-05-04 16:58:00,73.0,21.1,29.62,ESE,112,2.9,2.9,14,0.00,,OVC060,0.00,VWS V14.01,2013-05-04 20:58:00,
2013-05-04 16:59:00,73.0,21.1,29.62,WSW,248,2.5,2.9,14,0.00,,OVC060,0.00,VWS V14.01,2013-05-04 20:59:00,
2013-05-04 17:00:00,73.0,21.1,29.62,SE,135,2.0,2.5,14,0.00,,OVC060,0.00,VWS V14.01,2013-05-04 21:00:00,
2013-05-04 17:01:00,72.9,20.9,29.62,SSE,158,2.5,2.5,14,0.00,,OVC060,0.00,VWS V14.01,2013-05-04 21:01:00,
2013-05-04 17:02:00,72.9,20.9,29.62,ENE,68,2.5,2.5,14,0.00,,OVC060,0.00,VWS V14.01,2013-05-04 21:02:00,
2013-05-04 17:03:00,72.9,20.9,29.62,SSE,158,1.6,2.5,14,0.00,,OVC060,0.00,VWS V14.01,2013-05-04 21:03:00,
2013-05-04 17:04:00,72.9,20.9,29.62,ESE,112,2.0,2.0,14,0.00,,OVC060,0.00,VWS V14.01,2013-05-04 21:04:00,
2013-05-04 17:05:00,72.9,20.9,29.62,ENE,68,2.0,2.0,14,0.00,,OVC060,0.00,VWS V14.01,2013-05-04 21:05:00,
2013-05-04 17:06:00,72.9,20.9,29.62,ESE,112,1.3,2.0,14,0.00,,OVC060,0.00,VWS V14.01,2013-05-04 21:06:00,
2013-05-04 17:07:00,72.9,20.9,29.62,SSE,158,2.9,2.9,14,0.00,,OVC060,0.00,VWS V14.01,2013-05-04 21:07:00,
2013-05-04 17:08:00,72.9,20.9,29.62,ESE,112,3.1,3.1,14,0.00,,OVC060,0.00,VWS V14.01,2013-05-04 21:08:00,
2013-05-04 17:09:00,72.9,20.9,29.62,SE,135,1.3,3.1,14,0.00,,OVC060,0.00,VWS V14.01,2013-05-04 21:09:00,
2013-05-04 17:10:00,72.9,20.9,29.62,ESE,112,2.7,2.7,14,0.00,,OVC060,0.00,VWS V14.01,2013-05-04 21:10:00,
2013-05-04 17:11:00,72.9,20.9,29.62,SSE,158,2.2,2.7,14,0.00,,OVC060,0.00,VWS V14.01,2013-05-04 21:11:00,
2013-05-04 17:12:00,72.7,20.8,29.62,ESE,112,2.2,4.9,14,0.00,,OVC060,0.00,VWS V14.01,2013-05-04 21:12:00,
2013-05-04 17:13:00,72.7,20.8,29.62,SSE,158,2.5,2.5,14,0.00,,OVC060,0.00,VWS V14.01,2013-05-04 21:13:00,
2013-05-04 17:14:00,72.7,20.8,29.62,NNE,22,3.4,3.4,14,0.00,,OVC060,0.00,VWS V14.01,2013-05-04 21:14:00,
2013-05-04 17:15:00,72.7,20.8,29.62,East,90,2.0,3.4,14,0.00,,OVC060,0.00,VWS V14.01,2013-05-04 21:15:00,
2013-05-04 17:16:00,72.7,20.8,29.62,ESE,112,1.6,2.0,14,0.00,,OVC060,0.00,VWS V14.01,2013-05-04 21:16:00,
2013-05-04 17:17:00,72.5,20.6,29.62,SSE,158,1.6,1.6,14,0.00,,OVC060,0.00,VWS V14.01,2013-05-04 21:17:00,
2013-05-04 17:18:00,72.5,20.6,29.62,ESE,112,2.0,2.0,14,0.00,,OVC060,0.00,VWS V14.01,2013-05-04 21:18:00,
2013-05-04 17:19:00,72.7,20.8,29.62,ESE,112,3.1,3.1,14,0.00,,OVC060,0.00,VWS V14.01,2013-05-04 21:19:00,
2013-05-04 17:20:00,72.5,20.6,29.62,East,90,1.1,3.1,14,0.00,,OVC060,0.00,VWS V14.01,2013-05-04 21:20:00,
2013-05-04 17:21:00,72.5,20.6,29.62,South,180,2.7,2.7,14,0.00,,OVC060,0.00,VWS V14.01,2013-05-04 21:21:00,
2013-05-04 17:22:00,72.5,20.6,29.62,SSE,158,2.0,2.7,14,0.00,,OVC060,0.00,VWS V14.01,2013-05-04 21:22:00,
2013-05-04 17:23:00,72.5,20.6,29.62,SSE,158,2.0,2.0,14,0.00,,OVC060,0.00,VWS V14.01,2013-05-04 21:23:00,
2013-05-04 17:24:00,72.3,20.5,29.62,North,0,0.0,2.0,14,0.00,,OVC060,0.00,VWS V14.01,2013-05-04 21:24:00,
2013-05-04 17:25:00,72.3,20.5,29.62,SE,135,2.0,2.0,14,0.00,,OVC060,0.00,VWS V14.01,2013-05-04 21:25:00,
2013-05-04 17:26:00,72.5,20.6,29.62,SE,135,2.0,2.0,14,0.00,,OVC060,0.00,VWS V14.01,2013-05-04 21:26:00,
2013-05-04 17:27:00,72.5,20.6,29.62,SSE,158,2.7,2.7,14,0.00,,OVC060,0.00,VWS V14.01,2013-05-04 21:27:00,
2013-05-04 17:28:00,72.5,20.6,29.62,SSE,158,2.7,2.7,14,0.00,,OVC060,0.00,VWS V14.01,2013-05-04 21:28:00,
2013-05-04 17:29:00,72.3,20.5,29.62,SSE,158,4.3,4.3,14,0.00,,OVC060,0.00,VWS V14.01,2013-05-04 21:29:00,
2013-05-04 17:30:00,72.3,20.5,29.62,ESE,112,2.7,4.3,14,0.00,,OVC060,0.00,VWS V14.01,2013-05-04 21:30:00,
2013-05-04 17:31:00,72.3,20.5,29.62,ESE,112,2.7,2.7,14,0.00,,OVC060,0.00,VWS V14.01,2013-05-04 21:31:00,
2013-05-04 17:32:00,72.3,20.5,29.62,SE,135,3.1,3.1,14,0.00,,OVC060,0.00,VWS V14.01,2013-05-04 21:32:00,
2013-05-04 17:33:00,72.0,20.2,29.62,SE,135,3.1,3.1,14,0.00,,OVC060,0.00,VWS V14.01,2013-05-04 21:33:00,
2013-05-04 17:34:00,72.0,20.2,29.62,SSW,202,3.4,3.4,14,0.00,,OVC060,0.00,VWS V14.01,2013-05-04 21:34:00,
2013-05-04 17:35:00,72.0,20.2,29.62,SSE,158,5.6,5.6,14,0.00,,OVC060,0.00,VWS V14.01,2013-05-04 21:35:00,
2013-05-04 17:36:00,72.0,20.2,29.62,SW,225,0.9,5.6,14,0.00,,OVC060,0.00,VWS V14.01,2013-05-04 21:36:00,
2013-05-04 17:37:00,72.0,20.2,29.62,SSE,158,2.9,2.9,14,0.00,,OVC060,0.00,VWS V14.01,2013-05-04 21:37:00,
2013-05-04 17:38:00,72.0,20.2,29.62,SSE,158,2.7,2.9,14,0.00,,OVC060,0.00,VWS V14.01,2013-05-04 21:38:00,
2013-05-04 17:39:00,72.0,20.2,29.62,South,180,2.5,3.6,14,0.00,,OVC060,0.00,VWS V14.01,2013-05-04 21:39:00,
2013-05-04 17:40:00,72.0,20.2,29.62,SSE,158,2.5,2.5,14,0.00,,OVC060,0.00,VWS V14.01,2013-05-04 21:40:00,
2013-05-04 17:41:00,72.0,20.2,29.62,SSE,158,3.6,3.6,14,0.00,,OVC060,0.00,VWS V14.01,2013-05-04 21:41:00,
2013-05-04 17:42:00,72.0,20.2,29.62,ESE,112,2.9,3.6,14,0.00,,OVC060,0.00,VWS V14.01,2013-05-04 21:42:00,
2013-05-04 17:43:00,72.0,20.2,29.62,ENE,68,3.4,4.9,14,0.00,,OVC060,0.00,VWS V14.01,2013-05-04 21:43:00,
2013-05-04 17:44:00,72.0,20.2,29.62,East,90,2.0,3.4,14,0.00,,OVC060,0.00,VWS V14.01,2013-05-04 21:44:00,
2013-05-04 17:45:00,71.4,19.8,29.62,ENE,68,1.6,2.0,14,0.00,,OVC060,0.00,VWS V14.01,2013-05-04 21:45:00,
2013-05-04 17:46:00,71.4,19.8,29.62,ENE,68,1.6,1.6,14,0.00,,OVC060,0.00,VWS V14.01,2013-05-04 21:46:00,
2013-05-04 17:47:00,71.1,24.1,29.62,SSE,158,3.4,3.6,17,0.00,,OVC060,0.00,VWS V14.01,2013-05-04 21:47:00,
2013-05-04 17:48:00,71.1,24.1,29.62,SE,135,3.1,3.4,17,0.00,,OVC060,0.00,VWS V14.01,2013-05-04 21:48:00,
2013-05-04 17:49:00,70.5,19.1,29.62,SSE,158,3.4,3.4,14,0.00,,OVC060,0.00,VWS V14.01,2013-05-04 21:49:00,
2013-05-04 17:50:00,70.5,19.1,29.62,ESE,112,3.1,3.4,14,0.00,,OVC060,0.00,VWS V14.01,2013-05-04 21:50:00,
2013-05-04 17:51:00,70.2,18.8,29.62,SSE,158,2.2,3.1,14,0.00,,OVC060,0.00,VWS V14.01,2013-05-04 21:51:00,
2013-05-04 17:52:00,70.2,18.8,29.62,ESE,112,3.4,3.4,14,0.00,,OVC060,0.00,VWS V14.01,2013-05-04 21:52:00,
2013-05-04 17:53:00,70.2,18.8,29.62,SE,135,1.3,3.4,14,0.00,,OVC060,0.00,VWS V14.01,2013-05-04 21:53:00,
2013-05-04 17:54:00,70.2,18.8,29.62,East,90,1.6,1.6,14,0.00,,OVC060,0.00,VWS V14.01,2013-05-04 21:54:00,
2013-05-04 17:55:00,70.2,18.8,29.62,ESE,112,2.9,2.9,14,0.00,,OVC060,0.00,VWS V14.01,2013-05-04 21:55:00,
2013-05-04 17:56:00,69.6,20.0,29.62,ENE,68,2.0,2.9,15,0.00,,OVC060,0.00,VWS V14.01,2013-05-04 21:56:00,
2013-05-04 17:57:00,69.6,20.0,29.62,SSE,158,1.3,2.0,15,0.00,,OVC060,0.00,VWS V14.01,2013-05-04 21:57:00,
2013-05-04 17:58:00,69.4,19.8,29.62,SSE,158,2.7,2.7,15,0.00,,OVC060,0.00,VWS V14.01,2013-05-04 21:58:00,
2013-05-04 17:59:00,69.4,19.8,29.62,SSE,158,2.7,2.7,15,0.00,,OVC060,0.00,VWS V14.01,2013-05-04 21:59:00,
2013-05-04 18:00:00,69.4,19.8,29.62,SSE,158,2.7,2.7,15,0.00,,OVC060,0.00,VWS V14.01,2013-05-04 22:00:00,
2013-05-04 18:01:00,69.1,22.5,29.62,SE,135,2.0,2.7,17,0.00,,OVC060,0.00,VWS V14.01,2013-05-04 22:01:00,
2013-05-04 18:02:00,69.1,22.5,29.62,ESE,112,2.2,2.2,17,0.00,,OVC060,0.00,VWS V14.01,2013-05-04 22:02:00,
2013-05-04 18:03:00,68.9,22.3,29.62,ESE,112,2.5,2.5,17,0.00,,OVC060,0.00,VWS V14.01,2013-05-04 22:03:00,
2013-05-04 18:04:00,68.9,22.3,29.62,ESE,112,2.5,2.5,17,0.00,,OVC060,0.00,VWS V14.01,2013-05-04 22:04:00,
2013-05-04 18:05:00,68.9,22.3,29.62,SSE,158,2.7,2.7,17,0.00,,OVC060,0.00,VWS V14.01,2013-05-04 22:05:00,
2013-05-04 18:06:00,68.9,22.3,29.62,East,90,2.7,2.7,17,0.00,,OVC060,0.00,VWS V14.01,2013-05-04 22:06:00,
2013-05-04 18:07:00,68.5,22.0,29.62,SE,135,2.9,2.9,17,0.00,,OVC060,0.00,VWS V14.01,2013-05-04 22:07:00,
2013-05-04 18:09:00,68.5,22.0,29.62,SE,135,2.9,2.9,17,0.00,,OVC060,0.00,VWS V14.01,2013-05-04 22:09:00,
2013-05-04 18:10:00,68.0,21.6,29.62,ESE,112,2.7,3.4,17,0.00,,OVC060,0.00,VWS V14.01,2013-05-04 22:10:00,
2013-05-04 18:11:00,68.0,21.6,29.62,ESE,112,2.7,3.4,17,0.00,,OVC060,0.00,VWS V14.01,2013-05-04 22:11:00,
2013-05-04 18:12:00,67.8,21.5,29.62,SE,135,3.4,3.4,17,0.00,,OVC060,0.00,VWS V14.01,2013-05-04 22:12:00,
2013-05-04 18:13:00,67.8,21.5,29.62,East,90,1.6,3.4,17,0.00,,OVC060,0.00,VWS V14.01,2013-05-04 22:13:00,
2013-05-04 18:14:00,67.6,21.3,29.62,ESE,112,3.1,3.1,17,0.00,,OVC060,0.00,VWS V14.01,2013-05-04 22:14:00,
2013-05-04 18:15:00,67.3,21.0,29.62,East,90,2.7,2.7,17,0.00,,OVC060,0.00,VWS V14.01,2013-05-04 22:15:00,
2013-05-04 18:16:00,67.3,21.0,29.62,East,90,2.7,2.7,17,0.00,,OVC060,0.00,VWS V14.01,2013-05-04 22:16:00,
2013-05-04 18:17:00,67.3,21.0,29.62,ESE,112,3.1,3.1,17,0.00,,OVC060,0.00,VWS V14.01,2013-05-04 22:17:00,
2013-05-04 18:18:00,67.3,21.0,29.62,ESE,112,2.9,3.1,17,0.00,,OVC060,0.00,VWS V14.01,2013-05-04 22:18:00,
2013-05-04 18:19:00,66.9,20.7,29.62,SSE,158,2.2,2.9,17,0.00,,OVC060,0.00,VWS V14.01,2013-05-04 22:19:00,
2013-05-04 18:20:00,66.7,20.6,29.62,SSE,158,1.1,2.9,17,0.00,,OVC060,0.00,VWS V14.01,2013-05-04 22:20:00,
2013-05-04 18:21:00,66.7,20.6,29.62,SSE,158,1.1,2.9,17,0.00,,OVC060,0.00,VWS V14.01,2013-05-04 22:21:00,
2013-05-04 18:22:00,66.7,20.6,29.62,SSE,158,0.0,1.1,17,0.00,,OVC060,0.00,VWS V14.01,2013-05-04 22:22:00,
2013-05-04 18:23:00,66.7,20.6,29.62,SSE,158,2.5,2.5,17,0.00,,OVC060,0.00,VWS V14.01,2013-05-04 22:23:00,
2013-05-04 18:24:00,66.4,20.3,29.62,SSE,158,1.6,2.5,17,0.00,,OVC060,0.00,VWS V14.01,2013-05-04 22:24:00,
2013-05-04 18:25:00,66.4,20.3,29.62,ESE,112,2.0,2.0,17,0.00,,OVC060,0.00,VWS V14.01,2013-05-04 22:25:00,
2013-05-04 18:26:00,66.4,20.3,29.62,ESE,112,2.0,2.0,17,0.00,,OVC060,0.00,VWS V14.01,2013-05-04 22:26:00,
2013-05-04 18:27:00,66.4,20.3,29.62,East,90,1.3,2.0,17,0.00,,OVC060,0.00,VWS V14.01,2013-05-04 22:27:00,
2013-05-04 18:28:00,66.0,21.3,29.62,West,270,0.9,2.7,18,0.00,,OVC060,0.00,VWS V14.01,2013-05-04 22:28:00,
2013-05-04 18:29:00,66.0,21.3,29.62,SSE,158,1.3,1.3,18,0.00,,OVC060,0.00,VWS V14.01,2013-05-04 22:29:00,
2013-05-04 18:30:00,65.8,21.2,29.65,SE,135,0.0,0.0,18,0.00,,OVC060,0.00,VWS V14.01,2013-05-04 22:30:00,
2013-05-04 18:31:00,65.8,21.2,29.65,SSE,158,0.9,0.9,18,0.00,,OVC060,0.00,VWS V14.01,2013-05-04 22:31:00,
2013-05-04 18:32:00,65.8,21.2,29.65,ESE,112,2.0,2.0,18,0.00,,OVC060,0.00,VWS V14.01,2013-05-04 22:32:00,
2013-05-04 18:33:00,65.7,21.0,29.65,SSE,158,0.0,2.0,18,0.00,,OVC060,0.00,VWS V14.01,2013-05-04 22:33:00,
2013-05-04 18:34:00,65.7,21.0,29.65,ESE,112,1.6,1.6,18,0.00,,OVC060,0.00,VWS V14.01,2013-05-04 22:34:00,
2013-05-04 18:35:00,65.7,21.0,29.65,SE,135,1.3,1.6,18,0.00,,OVC060,0.00,VWS V14.01,2013-05-04 22:35:00,
2013-05-04 18:36:00,65.7,21.0,29.65,SE,135,1.3,1.3,18,0.00,,OVC060,0.00,VWS V14.01,2013-05-04 22:36:00,
2013-05-04 18:37:00,65.7,21.0,29.65,SSE,158,1.3,1.3,18,0.00,,OVC060,0.00,VWS V14.01,2013-05-04 22:37:00,
2013-05-04 18:38:00,65.1,20.6,29.65,SSE,158,1.3,1.3,18,0.00,,OVC060,0.00,VWS V14.01,2013-05-04 22:38:00,
2013-05-04 18:39:00,65.1,20.6,29.65,SSE,158,0.9,1.3,18,0.00,,OVC060,0.00,VWS V14.01,2013-05-04 22:39:00,
2013-05-04 18:40:00,64.9,20.4,29.65,WSW,248,1.1,1.1,18,0.00,,OVC060,0.00,VWS V14.01,2013-05-04 22:40:00,
2013-05-04 18:41:00,64.9,20.4,29.65,WSW,248,1.1,1.1,18,0.00,,OVC060,0.00,VWS V14.01,2013-05-04 22:41:00,
2013-05-04 18:42:00,64.9,20.4,29.65,SSW,202,2.7,2.7,18,0.00,,OVC060,0.00,VWS V14.01,2013-05-04 22:42:00,
2013-05-04 18:43:00,64.9,20.4,29.65,SSW,202,2.7,2.7,18,0.00,,OVC060,0.00,VWS V14.01,2013-05-04 22:43:00,
2013-05-04 18:44:00,64.4,22.5,29.65,SSW,202,1.3,2.7,20,0.00,,OVC060,0.00,VWS V14.01,2013-05-04 22:44:00,
2013-05-04 18:45:00,64.4,22.5,29.65,SSW,202,1.1,1.3,20,0.00,,OVC060,0.00,VWS V14.01,2013-05-04 22:45:00,
2013-05-04 18:46:00,64.4,22.5,29.65,South,180,1.1,1.1,20,0.00,,OVC060,0.00,VWS V14.01,2013-05-04 22:46:00,
2013-05-04 18:47:00,64.0,25.5,29.65,ENE,68,0.9,1.1,23,0.00,,OVC060,0.00,VWS V14.01,2013-05-04 22:47:00,
2013-05-04 18:48:00,64.0,25.5,29.65,SSE,158,2.0,2.0,23,0.00,,OVC060,0.00,VWS V14.01,2013-05-04 22:48:00,
2013-05-04 18:49:00,63.9,25.4,29.65,South,180,3.1,3.1,23,0.00,,OVC060,0.00,VWS V14.01,2013-05-04 22:49:00,
2013-05-04 18:50:00,63.9,25.4,29.65,ESE,112,2.0,3.1,23,0.00,,OVC060,0.00,VWS V14.01,2013-05-04 22:50:00,
2013-05-04 18:51:00,63.3,22.8,29.65,South,180,1.1,2.0,21,0.00,,OVC060,0.00,VWS V14.01,2013-05-04 22:51:00,
2013-05-04 18:52:00,63.3,24.9,29.65,SSE,158,0.9,1.1,23,0.00,,OVC060,0.00,VWS V14.01,2013-05-04 22:52:00,
2013-05-04 18:53:00,63.3,24.9,29.65,SSE,158,0.0,0.9,23,0.00,,OVC060,0.00,VWS V14.01,2013-05-04 22:53:00,
2013-05-04 18:54:00,63.3,24.9,29.65,South,180,1.3,1.3,23,0.00,,OVC060,0.00,VWS V14.01,2013-05-04 22:54:00,
2013-05-04 18:55:00,63.3,24.9,29.65,ESE,112,2.9,2.9,23,0.00,,OVC060,0.00,VWS V14.01,2013-05-04 22:55:00,
2013-05-04 18:56:00,62.8,24.5,29.65,SSW,202,2.7,2.9,23,0.00,,OVC060,0.00,VWS V14.01,2013-05-04 22:56:00,
2013-05-04 18:57:00,62.8,24.5,29.65,South,180,1.3,2.7,23,0.00,,OVC060,0.00,VWS V14.01,2013-05-04 22:57:00,
2013-05-04 18:58:00,62.6,24.3,29.65,SSE,158,1.1,1.3,23,0.00,,OVC060,0.00,VWS V14.01,2013-05-04 22:58:00,
2013-05-04 18:59:00,62.4,25.2,29.65,South,180,1.3,1.3,24,0.00,,OVC060,0.00,VWS V14.01,2013-05-04 22:59:00,
2013-05-04 19:00:00,62.4,25.2,29.65,SSE,158,0.0,1.3,24,0.00,,OVC060,0.00,VWS V14.01,2013-05-04 23:00:00,
2013-05-04 19:01:00,62.2,25.0,29.65,SSE,158,0.0,0.0,24,0.00,,OVC060,0.00,VWS V14.01,2013-05-04 23:01:00,
2013-05-04 19:02:00,62.2,25.0,29.65,SE,135,0.0,1.3,24,0.00,,OVC060,0.00,VWS V14.01,2013-05-04 23:02:00,
2013-05-04 19:03:00,62.1,24.9,29.65,South,180,0.0,0.0,24,0.00,,OVC060,0.00,VWS V14.01,2013-05-04 23:03:00,
2013-05-04 19:04:00,62.1,24.9,29.65,South,180,2.0,2.0,24,0.00,,OVC060,0.00,VWS V14.01,2013-05-04 23:04:00,
2013-05-04 19:05:00,61.7,24.6,29.65,SSW,202,1.3,2.0,24,0.00,,OVC060,0.00,VWS V14.01,2013-05-04 23:05:00,
2013-05-04 19:06:00,61.7,24.6,29.65,SSW,202,0.0,1.3,24,0.00,,OVC060,0.00,VWS V14.01,2013-05-04 23:06:00,
2013-05-04 19:07:00,61.7,24.6,29.65,SSW,202,1.3,1.3,24,0.00,,OVC060,0.00,VWS V14.01,2013-05-04 23:07:00,
2013-05-04 19:08:00,61.2,25.1,29.65,SSE,158,0.0,1.3,25,0.00,,OVC060,0.00,VWS V14.01,2013-05-04 23:08:00,
2013-05-04 19:09:00,61.2,25.1,29.65,South,180,2.7,2.7,25,0.00,,OVC060,0.00,VWS V14.01,2013-05-04 23:09:00,
2013-05-04 19:10:00,61.0,24.9,29.65,ESE,112,2.0,2.7,25,0.00,,OVC060,0.00,VWS V14.01,2013-05-04 23:10:00,
2013-05-04 19:11:00,61.0,24.9,29.65,South,180,0.9,2.0,25,0.00,,OVC060,0.00,VWS V14.01,2013-05-04 23:11:00,
2013-05-04 19:12:00,60.8,24.8,29.65,SSE,158,0.0,0.9,25,0.00,,OVC060,0.00,VWS V14.01,2013-05-04 23:12:00,
2013-05-04 19:13:00,60.8,24.8,29.65,SSE,158,2.0,2.0,25,0.00,,OVC060,0.00,VWS V14.01,2013-05-04 23:13:00,
2013-05-04 19:14:00,60.6,24.6,29.65,ESE,112,1.3,2.0,25,0.00,,OVC060,0.00,VWS V14.01,2013-05-04 23:14:00,
2013-05-04 19:15:00,60.4,24.5,29.65,ESE,112,1.6,1.6,25,0.00,,OVC060,0.00,VWS V14.01,2013-05-04 23:15:00,
2013-05-04 19:16:00,60.4,24.5,29.65,ESE,112,1.6,1.6,25,0.00,,OVC060,0.00,VWS V14.01,2013-05-04 23:16:00,
2013-05-04 19:17:00,60.1,24.2,29.65,SSE,158,1.3,1.6,25,0.00,,OVC060,0.00,VWS V14.01,2013-05-04 23:17:00,
2013-05-04 19:18:00,60.1,24.2,29.65,SSE,158,2.0,2.0,25,0.00,,OVC060,0.00,VWS V14.01,2013-05-04 23:18:00,
2013-05-04 19:19:00,60.1,24.2,29.65,SSE,158,2.5,2.5,25,0.00,,OVC060,0.00,VWS V14.01,2013-05-04 23:19:00,
2013-05-04 19:20:00,60.1,24.2,29.65,SSE,158,0.0,2.5,25,0.00,,OVC060,0.00,VWS V14.01,2013-05-04 23:20:00,
2013-05-04 19:21:00,60.1,24.2,29.65,SSW,202,2.0,2.0,25,0.00,,OVC060,0.00,VWS V14.01,2013-05-04 23:21:00,
2013-05-04 19:22:00,59.4,25.4,29.65,SSE,158,0.9,2.0,27,0.00,,OVC060,0.00,VWS V14.01,2013-05-04 23:22:00,
2013-05-04 19:23:00,59.4,25.4,29.65,SSE,158,0.0,0.9,27,0.00,,OVC060,0.00,VWS V14.01,2013-05-04 23:23:00,
2013-05-04 19:24:00,59.2,26.1,29.65,SSW,202,0.0,0.0,28,0.00,,OVC060,0.00,VWS V14.01,2013-05-04 23:24:00,
2013-05-04 19:25:00,59.2,26.1,29.65,SE,135,1.6,1.6,28,0.00,,OVC060,0.00,VWS V14.01,2013-05-04 23:25:00,
2013-05-04 19:26:00,58.8,25.8,29.65,ESE,112,3.4,3.4,28,0.00,,OVC060,0.00,VWS V14.01,2013-05-04 23:26:00,
2013-05-04 19:27:00,58.8,25.8,29.65,SE,135,1.3,3.4,28,0.00,,OVC060,0.00,VWS V14.01,2013-05-04 23:27:00,
2013-05-04 19:28:00,58.6,26.5,29.65,SSW,202,0.9,3.6,29,0.00,,OVC060,0.00,VWS V14.01,2013-05-04 23:28:00,
2013-05-04 19:29:00,58.5,26.3,29.65,SSE,158,0.0,0.9,29,0.00,,OVC060,0.00,VWS V14.01,2013-05-04 23:29:00,
2013-05-04 19:30:00,58.5,26.3,29.65,SSE,158,0.0,0.0,29,0.00,,OVC060,0.00,VWS V14.01,2013-05-04 23:30:00,
2013-05-04 19:31:00,58.5,26.3,29.68,ESE,112,1.3,1.3,29,0.00,,OVC060,0.00,VWS V14.01,2013-05-04 23:31:00,
2013-05-04 19:32:00,58.5,26.3,29.68,ESE,112,1.3,1.3,29,0.00,,OVC060,0.00,VWS V14.01,2013-05-04 23:32:00,
2013-05-04 19:33:00,57.9,26.7,29.68,SSE,158,2.2,2.2,30,0.00,,OVC060,0.00,VWS V14.01,2013-05-04 23:33:00,
2013-05-04 19:34:00,57.9,26.7,29.68,SSE,158,2.0,2.2,30,0.00,,OVC060,0.00,VWS V14.01,2013-05-04 23:34:00,
2013-05-04 19:35:00,57.6,26.4,29.68,SSE,158,1.1,2.0,30,0.00,,OVC060,0.00,VWS V14.01,2013-05-04 23:35:00,
2013-05-04 19:36:00,57.6,26.4,29.68,SSE,158,0.0,1.1,30,0.00,,OVC060,0.00,VWS V14.01,2013-05-04 23:36:00,
2013-05-04 19:37:00,57.6,26.4,29.68,South,180,1.1,1.1,30,0.00,,OVC060,0.00,VWS V14.01,2013-05-04 23:37:00,
2013-05-04 19:38:00,57.2,27.6,29.68,SSE,158,0.0,1.1,32,0.00,,OVC060,0.00,VWS V14.01,2013-05-04 23:38:00,
2013-05-04 19:39:00,57.2,27.6,29.68,ESE,112,0.0,0.0,32,0.00,,OVC060,0.00,VWS V14.01,2013-05-04 23:39:00,
2013-05-04 19:40:00,57.0,28.2,29.68,ESE,112,2.2,2.2,33,0.00,,OVC060,0.00,VWS V14.01,2013-05-04 23:40:00,
2013-05-04 19:41:00,57.0,28.2,29.68,ESE,112,2.2,2.2,33,0.00,,OVC060,0.00,VWS V14.01,2013-05-04 23:41:00,
2013-05-04 19:42:00,56.7,28.6,29.68,SSE,158,1.3,1.3,34,0.00,,OVC060,0.00,VWS V14.01,2013-05-04 23:42:00,
2013-05-04 19:43:00,56.7,28.6,29.68,WSW,248,0.0,1.3,34,0.00,,OVC060,0.00,VWS V14.01,2013-05-04 23:43:00,
2013-05-04 19:44:00,56.7,28.6,29.68,SSE,158,0.0,0.0,34,0.00,,OVC060,0.00,VWS V14.01,2013-05-04 23:44:00,
2013-05-04 19:45:00,56.3,29.0,29.68,SE,135,0.9,0.9,35,0.00,,OVC060,0.00,VWS V14.01,2013-05-04 23:45:00,
2013-05-04 19:46:00,56.3,29.0,29.68,SE,135,0.0,0.9,35,0.00,,OVC060,0.00,VWS V14.01,2013-05-04 23:46:00,
2013-05-04 19:47:00,55.9,28.7,29.68,SSE,158,1.6,1.6,35,0.00,,OVC060,0.00,VWS V14.01,2013-05-04 23:47:00,
2013-05-04 19:48:00,55.9,28.7,29.68,SSE,158,0.0,1.6,35,0.00,,OVC060,0.00,VWS V14.01,2013-05-04 23:48:00,
2013-05-04 19:49:00,55.8,28.5,29.68,SSE,158,2.2,2.2,35,0.00,,OVC060,0.00,VWS V14.01,2013-05-04 23:49:00,
2013-05-04 19:50:00,55.8,28.5,29.68,SSE,158,0.0,2.2,35,0.00,,OVC060,0.00,VWS V14.01,2013-05-04 23:50:00,
2013-05-04 19:51:00,55.6,28.4,29.68,SSE,158,0.0,0.0,35,0.00,,OVC060,0.00,VWS V14.01,2013-05-04 23:51:00,
2013-05-04 19:52:00,55.2,28.8,29.68,ENE,68,2.5,2.5,36,0.00,,OVC060,0.00,VWS V14.01,2013-05-04 23:52:00,
2013-05-04 19:53:00,55.2,28.8,29.68,ENE,68,0.0,2.5,36,0.00,,OVC060,0.00,VWS V14.01,2013-05-04 23:53:00,
2013-05-04 19:54:00,55.0,28.6,29.68,ESE,112,0.0,0.0,36,0.00,,OVC060,0.00,VWS V14.01,2013-05-04 23:54:00,
2013-05-04 19:55:00,55.0,28.6,29.68,WSW,248,2.7,2.7,36,0.00,,OVC060,0.00,VWS V14.01,2013-05-04 23:55:00,
2013-05-04 19:56:00,55.0,28.6,29.68,SSW,202,1.6,2.7,36,0.00,,OVC060,0.00,VWS V14.01,2013-05-04 23:56:00,
2013-05-04 19:57:00,55.0,28.6,29.68,ESE,112,0.9,1.6,36,0.00,,OVC060,0.00,VWS V14.01,2013-05-04 23:57:00,
2013-05-04 19:58:00,54.5,28.1,29.68,SE,135,1.1,1.1,36,0.00,,OVC060,0.00,VWS V14.01,2013-05-04 23:58:00,
2013-05-04 19:59:00,54.5,28.1,29.68,ESE,112,0.0,1.1,36,0.00,,OVC060,0.00,VWS V14.01,2013-05-04 23:59:00,
2013-05-04 20:00:00,54.3,28.0,29.68,ESE,112,0.9,2.0,36,0.00,,OVC060,0.00,VWS V14.01,2013-05-05 00:00:00,
2013-05-04 20:01:00,54.1,28.5,29.68,ESE,112,0.9,0.9,37,0.00,,OVC060,0.00,VWS V14.01,2013-05-05 00:01:00,
2013-05-04 20:02:00,54.1,28.5,29.68,SSE,158,1.6,2.2,37,0.00,,OVC060,0.00,VWS V14.01,2013-05-05 00:02:00,
2013-05-04 20:03:00,54.0,28.3,29.68,SSE,158,1.6,1.6,37,0.00,,OVC060,0.00,VWS V14.01,2013-05-05 00:03:00,
2013-05-04 20:04:00,54.0,28.3,29.68,SSE,158,1.3,1.6,37,0.00,,OVC060,0.00,VWS V14.01,2013-05-05 00:04:00,
2013-05-04 20:05:00,53.8,28.1,29.68,SSE,158,0.0,0.0,37,0.00,,OVC060,0.00,VWS V14.01,2013-05-05 00:05:00,
2013-05-04 20:06:00,53.8,28.1,29.68,SSE,158,0.0,0.0,37,0.00,,OVC060,0.00,VWS V14.01,2013-05-05 00:06:00,
2013-05-04 20:07:00,53.6,28.0,29.68,SSE,158,0.0,0.0,37,0.00,,OVC060,0.00,VWS V14.01,2013-05-05 00:07:00,
2013-05-04 20:08:00,53.6,28.0,29.68,SE,135,0.0,0.0,37,0.00,,OVC060,0.00,VWS V14.01,2013-05-05 00:08:00,
2013-05-04 20:09:00,53.6,28.0,29.68,SE,135,0.0,0.0,37,0.00,,OVC060,0.00,VWS V14.01,2013-05-05 00:09:00,
2013-05-04 20:10:00,53.1,28.1,29.68,ESE,112,0.0,0.0,38,0.00,,OVC060,0.00,VWS V14.01,2013-05-05 00:10:00,
2013-05-04 20:11:00,53.1,28.1,29.68,ESE,112,0.0,0.0,38,0.00,,OVC060,0.00,VWS V14.01,2013-05-05 00:11:00,
2013-05-04 20:12:00,53.1,28.1,29.68,SSW,202,0.0,0.0,38,0.00,,OVC060,0.00,VWS V14.01,2013-05-05 00:12:00,
2013-05-04 20:13:00,53.1,28.1,29.68,ESE,112,1.3,1.3,38,0.00,,OVC060,0.00,VWS V14.01,2013-05-05 00:13:00,
2013-05-04 20:14:00,52.7,28.5,29.68,ESE,112,0.0,1.3,39,0.00,,OVC060,0.00,VWS V14.01,2013-05-05 00:14:00,
2013-05-04 20:15:00,52.7,28.5,29.68,ESE,112,0.0,0.0,39,0.00,,OVC060,0.00,VWS V14.01,2013-05-05 00:15:00,
2013-05-04 20:16:00,52.7,28.5,29.68,SSE,158,0.0,0.0,39,0.00,,OVC060,0.00,VWS V14.01,2013-05-05 00:16:00,
2013-05-04 20:17:00,52.7,28.5,29.71,SSE,158,0.0,0.0,39,0.00,,OVC060,0.00,VWS V14.01,2013-05-05 00:17:00,
2013-05-04 20:18:00,52.7,28.5,29.71,ESE,112,0.0,0.0,39,0.00,,OVC060,0.00,VWS V14.01,2013-05-05 00:18:00,
2013-05-04 20:19:00,52.2,28.6,29.71,ESE,112,0.0,0.0,40,0.00,,OVC060,0.00,VWS V14.01,2013-05-05 00:19:00,
2013-05-04 20:20:00,52.2,28.6,29.71,ESE,112,0.0,0.0,40,0.00,,OVC060,0.00,VWS V14.01,2013-05-05 00:20:00,
2013-05-04 20:21:00,52.2,28.6,29.71,SE,135,0.0,0.0,40,0.00,,OVC060,0.00,VWS V14.01,2013-05-05 00:21:00,
2013-05-04 20:22:00,52.2,28.6,29.71,SE,135,0.0,0.0,40,0.00,,OVC060,0.00,VWS V14.01,2013-05-05 00:22:00,
2013-05-04 20:23:00,52.2,28.6,29.71,SE,135,0.0,0.0,40,0.00,,OVC060,0.00,VWS V14.01,2013-05-05 00:23:00,
2013-05-04 20:24:00,51.8,28.3,29.71,ESE,112,0.0,0.0,40,0.00,,OVC060,0.00,VWS V14.01,2013-05-05 00:24:00,
2013-05-04 20:25:00,51.6,28.7,29.71,ESE,112,1.3,1.3,41,0.00,,OVC060,0.00,VWS V14.01,2013-05-05 00:25:00,
2013-05-04 20:26:00,51.6,28.7,29.71,ESE,112,1.3,1.3,41,0.00,,OVC060,0.00,VWS V14.01,2013-05-05 00:26:00,
2013-05-04 20:27:00,51.6,28.7,29.71,ESE,112,0.9,1.3,41,0.00,,OVC060,0.00,VWS V14.01,2013-05-05 00:27:00,
2013-05-04 20:28:00,51.6,28.7,29.71,ESE,112,1.6,1.6,41,0.00,,OVC060,0.00,VWS V14.01,2013-05-05 00:28:00,
2013-05-04 20:29:00,51.6,28.7,29.71,SE,135,0.0,1.6,41,0.00,,OVC060,0.00,VWS V14.01,2013-05-05 00:29:00,
2013-05-04 20:30:00,51.3,28.4,29.71,ESE,112,0.0,0.9,41,0.00,,OVC060,0.00,VWS V14.01,2013-05-05 00:30:00,
2013-05-04 20:31:00,51.3,28.4,29.71,ESE,112,0.0,0.9,41,0.00,,OVC060,0.00,VWS V14.01,2013-05-05 00:31:00,
2013-05-04 20:32:00,51.3,28.4,29.71,SE,135,1.3,1.3,41,0.00,,OVC060,0.00,VWS V14.01,2013-05-05 00:32:00,
2013-05-04 20:33:00,51.3,28.4,29.71,SSE,158,1.1,1.3,41,0.00,,OVC060,0.00,VWS V14.01,2013-05-05 00:33:00,
2013-05-04 20:34:00,51.3,28.4,29.71,ESE,112,2.2,2.2,41,0.00,,OVC060,0.00,VWS V14.01,2013-05-05 00:34:00,
2013-05-04 20:35:00,50.9,28.1,29.71,SSE,158,0.0,0.0,41,0.00,,OVC060,0.00,VWS V14.01,2013-05-05 00:35:00,
2013-05-04 20:36:00,50.9,28.1,29.71,SSE,158,0.0,0.0,41,0.00,,OVC060,0.00,VWS V14.01,2013-05-05 00:36:00,
2013-05-04 20:37:00,50.7,27.9,29.71,SSE,158,0.0,0.0,41,0.00,,OVC060,0.00,VWS V14.01,2013-05-05 00:37:00,
2013-05-04 20:38:00,50.5,28.3,29.71,ESE,112,0.0,0.0,42,0.00,,OVC060,0.00,VWS V14.01,2013-05-05 00:38:00,
2013-05-04 20:39:00,50.5,28.3,29.71,SSE,158,0.0,0.0,42,0.00,,OVC060,0.00,VWS V14.01,2013-05-05 00:39:00,
2013-05-04 20:40:00,50.5,28.3,29.71,SSE,158,0.0,0.0,42,0.00,,OVC060,0.00,VWS V14.01,2013-05-05 00:40:00,
2013-05-04 20:41:00,50.5,28.3,29.71,SSE,158,0.0,0.0,42,0.00,,OVC060,0.00,VWS V14.01,2013-05-05 00:41:00,
2013-05-04 20:42:00,50.4,28.2,29.71,SSE,158,0.0,0.0,42,0.00,,OVC060,0.00,VWS V14.01,2013-05-05 00:42:00,
2013-05-04 20:43:00,50.4,28.2,29.71,SSE,158,0.0,0.0,42,0.00,,OVC060,0.00,VWS V14.01,2013-05-05 00:43:00,
2013-05-04 20:44:00,50.2,28.0,29.71,SSE,158,0.0,0.0,42,0.00,,OVC060,0.00,VWS V14.01,2013-05-05 00:44:00,
2013-05-04 20:45:00,50.2,28.0,29.71,SSE,158,0.0,0.0,42,0.00,,OVC060,0.00,VWS V14.01,2013-05-05 00:45:00,
2013-05-04 20:47:00,50.2,28.0,29.71,SSE,158,0.0,0.0,42,0.00,,OVC060,0.00,VWS V14.01,2013-05-05 00:47:00,
2013-05-04 20:48:00,50.2,28.0,29.71,SSE,158,0.0,0.0,42,0.00,,OVC060,0.00,VWS V14.01,2013-05-05 00:48:00,
2013-05-04 20:49:00,50.2,28.0,29.71,SSE,158,0.0,0.0,42,0.00,,OVC060,0.00,VWS V14.01,2013-05-05 00:49:00,
2013-05-04 20:50:00,49.5,27.9,29.71,SW,225,0.0,0.0,43,0.00,,OVC060,0.00,VWS V14.01,2013-05-05 00:50:00,
2013-05-04 20:51:00,49.5,27.9,29.71,SW,225,0.0,0.0,43,0.00,,OVC060,0.00,VWS V14.01,2013-05-05 00:51:00,
2013-05-04 20:52:00,49.5,27.9,29.71,SSE,158,0.0,0.0,43,0.00,,OVC060,0.00,VWS V14.01,2013-05-05 00:52:00,
2013-05-04 20:53:00,49.3,27.8,29.71,SSE,158,0.0,0.0,43,0.00,,OVC060,0.00,VWS V14.01,2013-05-05 00:53:00,
2013-05-04 20:54:00,49.1,27.6,29.71,SSE,158,0.0,0.0,43,0.00,,OVC060,0.00,VWS V14.01,2013-05-05 00:54:00,
2013-05-04 20:55:00,48.9,28.0,29.71,SSE,158,0.0,0.0,44,0.00,,OVC060,0.00,VWS V14.01,2013-05-05 00:55:00,
2013-05-04 20:56:00,48.9,28.0,29.71,SSE,158,0.0,0.0,44,0.00,,OVC060,0.00,VWS V14.01,2013-05-05 00:56:00,
2013-05-04 20:57:00,48.9,28.0,29.71,SSE,158,0.0,0.0,44,0.00,,OVC060,0.00,VWS V14.01,2013-05-05 00:57:00,
2013-05-04 20:58:00,48.9,28.0,29.71,SSE,158,0.0,0.0,44,0.00,,OVC060,0.00,VWS V14.01,2013-05-05 00:58:00,
2013-05-04 20:59:00,48.9,28.0,29.71,SSE,158,0.0,0.0,44,0.00,,OVC060,0.00,VWS V14.01,2013-05-05 00:59:00,
2013-05-04 21:00:00,48.7,27.8,29.71,SSE,158,0.0,0.0,44,0.00,,OVC060,0.00,VWS V14.01,2013-05-05 01:00:00,
2013-05-04 21:01:00,48.6,27.6,29.71,SSE,158,0.0,0.0,44,0.00,,OVC060,0.00,VWS V14.01,2013-05-05 01:01:00,
2013-05-04 21:02:00,48.6,27.6,29.71,SSE,158,0.0,0.0,44,0.00,,OVC060,0.00,VWS V14.01,2013-05-05 01:02:00,
2013-05-04 21:03:00,48.4,27.5,29.71,SSE,158,0.0,0.0,44,0.00,,OVC060,0.00,VWS V14.01,2013-05-05 01:03:00,
2013-05-04 21:04:00,48.4,27.5,29.71,SSE,158,0.0,0.0,44,0.00,,OVC060,0.00,VWS V14.01,2013-05-05 01:04:00,
2013-05-04 21:05:00,48.2,27.3,29.71,SSE,158,0.0,0.0,44,0.00,,OVC060,0.00,VWS V14.01,2013-05-05 01:05:00,
2013-05-04 21:06:00,48.2,27.3,29.71,SSE,158,0.0,0.0,44,0.00,,OVC060,0.00,VWS V14.01,2013-05-05 01:06:00,
2013-05-04 21:07:00,48.2,27.3,29.71,SSE,158,0.0,0.0,44,0.00,,OVC060,0.00,VWS V14.01,2013-05-05 01:07:00,
2013-05-04 21:08:00,48.2,27.3,29.71,SSE,158,0.0,0.0,44,0.00,,OVC060,0.00,VWS V14.01,2013-05-05 01:08:00,
2013-05-04 21:09:00,48.2,27.3,29.71,SSE,158,0.0,0.0,44,0.00,,OVC060,0.00,VWS V14.01,2013-05-05 01:09:00,
2013-05-04 21:10:00,48.2,27.3,29.71,SSE,158,0.0,0.0,44,0.00,,OVC060,0.00,VWS V14.01,2013-05-05 01:10:00,
2013-05-04 21:11:00,48.2,27.3,29.71,SSE,158,0.0,0.0,44,0.00,,OVC060,0.00,VWS V14.01,2013-05-05 01:11:00,
2013-05-04 21:12:00,47.5,27.8,29.71,SSE,158,0.0,0.0,46,0.00,,OVC060,0.00,VWS V14.01,2013-05-05 01:12:00,
2013-05-04 21:13:00,47.5,27.8,29.71,SSE,158,0.0,0.0,46,0.00,,OVC060,0.00,VWS V14.01,2013-05-05 01:13:00,
2013-05-04 21:14:00,47.3,27.6,29.71,SSE,158,0.0,0.0,46,0.00,,OVC060,0.00,VWS V14.01,2013-05-05 01:14:00,
2013-05-04 21:15:00,47.1,27.9,29.71,SSE,158,0.0,0.0,47,0.00,,OVC060,0.00,VWS V14.01,2013-05-05 01:15:00,
2013-05-04 21:16:00,47.1,27.9,29.71,SSE,158,0.0,0.0,47,0.00,,OVC060,0.00,VWS V14.01,2013-05-05 01:16:00,
2013-05-04 21:17:00,46.9,27.8,29.71,SSE,158,0.0,0.0,47,0.00,,OVC060,0.00,VWS V14.01,2013-05-05 01:17:00,
2013-05-04 21:18:00,46.9,27.8,29.71,SSE,158,0.0,0.0,47,0.00,,OVC060,0.00,VWS V14.01,2013-05-05 01:18:00,
2013-05-04 21:19:00,46.9,27.8,29.71,SSE,158,0.0,0.0,47,0.00,,OVC060,0.00,VWS V14.01,2013-05-05 01:19:00,
2013-05-04 21:20:00,46.6,27.5,29.71,SSE,158,0.0,0.0,47,0.00,,OVC060,0.00,VWS V14.01,2013-05-05 01:20:00,
2013-05-04 21:21:00,46.6,27.5,29.71,SSE,158,0.0,0.0,47,0.00,,OVC060,0.00,VWS V14.01,2013-05-05 01:21:00,
2013-05-04 21:22:00,46.6,27.5,29.71,SSE,158,0.0,0.0,47,0.00,,OVC060,0.00,VWS V14.01,2013-05-05 01:22:00,
2013-05-04 21:23:00,46.6,27.5,29.71,SSE,158,0.0,0.0,47,0.00,,OVC060,0.00,VWS V14.01,2013-05-05 01:23:00,
2013-05-04 21:24:00,46.4,27.8,29.71,SSE,158,0.0,0.0,48,0.00,,OVC060,0.00,VWS V14.01,2013-05-05 01:24:00,
2013-05-04 21:25:00,46.2,28.1,29.71,SSE,158,0.0,0.0,49,0.00,,OVC060,0.00,VWS V14.01,2013-05-05 01:25:00,
2013-05-04 21:26:00,46.2,28.1,29.71,SSE,158,0.0,0.0,49,0.00,,OVC060,0.00,VWS V14.01,2013-05-05 01:26:00,
2013-05-04 21:27:00,46.2,28.1,29.71,SSE,158,0.0,0.0,49,0.00,,OVC060,0.00,VWS V14.01,2013-05-05 01:27:00,
2013-05-04 21:28:00,46.0,28.0,29.71,SSE,158,0.0,0.0,49,0.00,,OVC060,0.00,VWS V14.01,2013-05-05 01:28:00,
2013-05-04 21:29:00,46.0,28.0,29.71,SSE,158,0.0,0.0,49,0.00,,OVC060,0.00,VWS V14.01,2013-05-05 01:29:00,
2013-05-04 21:30:00,45.9,28.3,29.71,SSE,158,0.0,0.0,50,0.00,,OVC060,0.00,VWS V14.01,2013-05-05 01:30:00,
2013-05-04 21:31:00,45.7,28.1,29.71,SSE,158,0.0,0.0,50,0.00,,OVC060,0.00,VWS V14.01,2013-05-05 01:31:00,
2013-05-04 21:32:00,45.7,28.1,29.71,SSE,158,0.0,0.0,50,0.00,,OVC060,0.00,VWS V14.01,2013-05-05 01:32:00,
2013-05-04 21:33:00,45.5,28.0,29.71,SSE,158,0.0,0.0,50,0.00,,OVC060,0.00,VWS V14.01,2013-05-05 01:33:00,
2013-05-04 21:34:00,45.5,28.0,29.71,SSE,158,0.0,0.0,50,0.00,,OVC060,0.00,VWS V14.01,2013-05-05 01:34:00,
2013-05-04 21:35:00,45.5,28.0,29.71,SSW,202,0.0,0.0,50,0.00,,OVC060,0.00,VWS V14.01,2013-05-05 01:35:00,
2013-05-04 21:36:00,45.5,28.0,29.71,SSW,202,0.0,0.0,50,0.00,,OVC060,0.00,VWS V14.01,2013-05-05 01:36:00,
2013-05-04 21:37:00,45.1,27.6,29.71,SSW,202,0.0,0.0,50,0.00,,OVC060,0.00,VWS V14.01,2013-05-05 01:37:00,
2013-05-04 21:38:00,45.1,27.6,29.71,SSW,202,0.0,0.0,50,0.00,,OVC060,0.00,VWS V14.01,2013-05-05 01:38:00,
2013-05-04 21:39:00,45.1,27.6,29.71,South,180,0.0,0.0,50,0.00,,OVC060,0.00,VWS V14.01,2013-05-05 01:39:00,
2013-05-04 21:40:00,45.0,27.9,29.71,South,180,0.0,0.0,51,0.00,,OVC060,0.00,VWS V14.01,2013-05-05 01:40:00,
2013-05-04 21:41:00,45.0,27.9,29.71,South,180,0.0,0.0,51,0.00,,OVC060,0.00,VWS V14.01,2013-05-05 01:41:00,
2013-05-04 21:42:00,44.8,27.8,29.71,South,180,0.0,0.0,51,0.00,,OVC060,0.00,VWS V14.01,2013-05-05 01:42:00,
2013-05-04 21:43:00,44.8,27.8,29.71,South,180,0.0,0.0,51,0.00,,OVC060,0.00,VWS V14.01,2013-05-05 01:43:00,
2013-05-04 21:44:00,44.8,27.8,29.71,South,180,0.0,0.0,51,0.00,,OVC060,0.00,VWS V14.01,2013-05-05 01:44:00,
2013-05-04 21:45:00,44.6,28.1,29.74,South,180,0.0,0.0,52,0.00,,OVC060,0.00,VWS V14.01,2013-05-05 01:45:00,
2013-05-04 21:46:00,44.6,28.1,29.74,South,180,0.0,0.0,52,0.00,,OVC060,0.00,VWS V14.01,2013-05-05 01:46:00,
2013-05-04 21:47:00,44.6,28.1,29.74,South,180,0.0,0.0,52,0.00,,OVC060,0.00,VWS V14.01,2013-05-05 01:47:00,
2013-05-04 21:48:00,44.6,28.1,29.74,South,180,0.0,0.0,52,0.00,,OVC060,0.00,VWS V14.01,2013-05-05 01:48:00,
2013-05-04 21:49:00,44.4,28.4,29.74,South,180,0.0,0.0,53,0.00,,OVC060,0.00,VWS V14.01,2013-05-05 01:49:00,
2013-05-04 21:50:00,44.2,28.2,29.74,South,180,0.0,0.0,53,0.00,,OVC060,0.00,VWS V14.01,2013-05-05 01:50:00,
2013-05-04 21:51:00,44.2,28.2,29.74,South,180,0.0,0.0,53,0.00,,OVC060,0.00,VWS V14.01,2013-05-05 01:51:00,
2013-05-04 21:52:00,44.2,28.2,29.74,South,180,0.0,0.0,53,0.00,,OVC060,0.00,VWS V14.01,2013-05-05 01:52:00,
2013-05-04 21:53:00,44.2,28.2,29.74,South,180,0.0,0.0,53,0.00,,OVC060,0.00,VWS V14.01,2013-05-05 01:53:00,
2013-05-04 21:54:00,44.2,28.2,29.74,South,180,0.0,0.0,53,0.00,,OVC060,0.00,VWS V14.01,2013-05-05 01:54:00,
2013-05-04 21:55:00,44.1,28.5,29.74,South,180,0.0,0.0,54,0.00,,OVC060,0.00,VWS V14.01,2013-05-05 01:55:00,
2013-05-04 21:56:00,44.1,28.5,29.74,South,180,0.0,0.0,54,0.00,,OVC060,0.00,VWS V14.01,2013-05-05 01:56:00,
2013-05-04 21:57:00,44.1,28.5,29.74,South,180,0.0,0.0,54,0.00,,OVC060,0.00,VWS V14.01,2013-05-05 01:57:00,
2013-05-04 21:58:00,43.9,28.3,29.74,South,180,0.0,0.0,54,0.00,,OVC060,0.00,VWS V14.01,2013-05-05 01:58:00,
2013-05-04 21:59:00,43.9,28.3,29.74,South,180,0.0,0.0,54,0.00,,OVC060,0.00,VWS V14.01,2013-05-05 01:59:00,
2013-05-04 22:00:00,43.9,28.3,29.74,South,180,0.0,0.0,54,0.00,,OVC060,0.00,VWS V14.01,2013-05-05 02:00:00,
2013-05-04 22:02:00,43.9,28.3,29.74,South,180,0.0,0.0,54,0.00,,OVC060,0.00,VWS V14.01,2013-05-05 02:02:00,
2013-05-04 22:03:00,43.5,28.4,29.74,South,180,0.0,0.0,55,0.00,,OVC060,0.00,VWS V14.01,2013-05-05 02:03:00,
2013-05-04 22:04:00,43.5,28.4,29.74,South,180,0.0,0.0,55,0.00,,OVC060,0.00,VWS V14.01,2013-05-05 02:04:00,
2013-05-04 22:05:00,43.5,28.4,29.74,South,180,0.0,0.0,55,0.00,,OVC060,0.00,VWS V14.01,2013-05-05 02:05:00,
2013-05-04 22:06:00,43.5,28.4,29.74,South,180,0.0,0.0,55,0.00,,OVC060,0.00,VWS V14.01,2013-05-05 02:06:00,
2013-05-04 22:07:00,43.3,28.3,29.74,South,180,0.0,0.0,55,0.00,,OVC060,0.00,VWS V14.01,2013-05-05 02:07:00,
2013-05-04 22:08:00,43.3,28.7,29.74,South,180,0.0,0.0,56,0.00,,OVC060,0.00,VWS V14.01,2013-05-05 02:08:00,
2013-05-04 22:09:00,43.3,28.7,29.74,South,180,0.0,0.0,56,0.00,,OVC060,0.00,VWS V14.01,2013-05-05 02:09:00,
2013-05-04 22:10:00,43.3,28.7,29.74,South,180,0.0,0.0,56,0.00,,OVC060,0.00,VWS V14.01,2013-05-05 02:10:00,
2013-05-04 22:11:00,43.3,28.7,29.74,South,180,0.0,0.0,56,0.00,,OVC060,0.00,VWS V14.01,2013-05-05 02:11:00,
2013-05-04 22:12:00,43.3,28.7,29.74,South,180,0.0,0.0,56,0.00,,OVC060,0.00,VWS V14.01,2013-05-05 02:12:00,
2013-05-04 22:13:00,43.3,28.7,29.74,South,180,0.0,0.0,56,0.00,,OVC060,0.00,VWS V14.01,2013-05-05 02:13:00,
2013-05-04 22:14:00,43.0,29.2,29.74,South,180,0.0,0.0,58,0.00,,OVC060,0.00,VWS V14.01,2013-05-05 02:14:00,
2013-05-04 22:15:00,43.0,29.2,29.74,South,180,0.0,0.0,58,0.00,,OVC060,0.00,VWS V14.01,2013-05-05 02:15:00,
2013-05-04 22:16:00,43.0,29.2,29.74,South,180,0.0,0.0,58,0.00,,OVC060,0.00,VWS V14.01,2013-05-05 02:16:00,
2013-05-04 22:17:00,42.8,29.5,29.74,South,180,0.0,0.0,59,0.00,,OVC060,0.00,VWS V14.01,2013-05-05 02:17:00,
2013-05-04 22:18:00,42.8,29.5,29.74,South,180,0.0,0.0,59,0.00,,OVC060,0.00,VWS V14.01,2013-05-05 02:18:00,
2013-05-04 22:19:00,42.8,29.5,29.74,South,180,0.0,0.0,59,0.00,,OVC060,0.00,VWS V14.01,2013-05-05 02:19:00,
2013-05-04 22:20:00,42.8,29.9,29.74,South,180,0.0,0.0,60,0.00,,OVC060,0.00,VWS V14.01,2013-05-05 02:20:00,
2013-05-04 22:21:00,42.8,29.9,29.74,South,180,0.0,0.0,60,0.00,,OVC060,0.00,VWS V14.01,2013-05-05 02:21:00,
2013-05-04 22:22:00,42.8,29.9,29.74,South,180,0.0,0.0,60,0.00,,OVC060,0.00,VWS V14.01,2013-05-05 02:22:00,
2013-05-04 22:23:00,42.6,29.7,29.74,South,180,0.0,0.0,60,0.00,,OVC060,0.00,VWS V14.01,2013-05-05 02:23:00,
2013-05-04 22:24:00,42.6,29.7,29.74,South,180,0.0,0.0,60,0.00,,OVC060,0.00,VWS V14.01,2013-05-05 02:24:00,
2013-05-04 22:25:00,42.3,29.4,29.74,South,180,0.0,0.0,60,0.00,,OVC060,0.00,VWS V14.01,2013-05-05 02:25:00,
2013-05-04 22:26:00,42.3,29.4,29.74,South,180,0.0,0.0,60,0.00,,OVC060,0.00,VWS V14.01,2013-05-05 02:26:00,
2013-05-04 22:27:00,42.3,29.4,29.74,South,180,0.0,0.0,60,0.00,,OVC060,0.00,VWS V14.01,2013-05-05 02:27:00,
2013-05-04 22:28:00,42.3,29.4,29.74,South,180,0.0,0.0,60,0.00,,OVC060,0.00,VWS V14.01,2013-05-05 02:28:00,
2013-05-04 22:29:00,42.3,29.4,29.74,South,180,0.0,0.0,60,0.00,,OVC060,0.00,VWS V14.01,2013-05-05 02:29:00,
2013-05-04 22:30:00,42.1,29.2,29.74,South,180,0.0,0.0,60,0.00,,OVC060,0.00,VWS V14.01,2013-05-05 02:30:00,
2013-05-04 22:31:00,41.9,29.0,29.74,South,180,0.0,0.0,60,0.00,,OVC060,0.00,VWS V14.01,2013-05-05 02:31:00,
2013-05-04 22:32:00,41.9,29.0,29.74,South,180,0.0,0.0,60,0.00,,OVC060,0.00,VWS V14.01,2013-05-05 02:32:00,
2013-05-04 22:33:00,41.9,29.0,29.74,South,180,0.0,0.0,60,0.00,,OVC060,0.00,VWS V14.01,2013-05-05 02:33:00,
2013-05-04 22:34:00,41.9,29.0,29.74,South,180,0.0,0.0,60,0.00,,OVC060,0.00,VWS V14.01,2013-05-05 02:34:00,
2013-05-04 22:35:00,41.7,29.3,29.74,South,180,0.0,0.0,61,0.00,,OVC060,0.00,VWS V14.01,2013-05-05 02:35:00,
2013-05-04 22:36:00,41.7,29.3,29.74,South,180,0.0,0.0,61,0.00,,OVC060,0.00,VWS V14.01,2013-05-05 02:36:00,
2013-05-04 22:37:00,41.7,29.3,29.74,SSW,202,0.0,0.0,61,0.00,,OVC060,0.00,VWS V14.01,2013-05-05 02:37:00,
2013-05-04 22:38:00,41.7,29.3,29.74,SSW,202,0.0,0.0,61,0.00,,OVC060,0.00,VWS V14.01,2013-05-05 02:38:00,
2013-05-04 22:39:00,41.5,29.9,29.74,SSW,202,0.0,0.0,63,0.00,,OVC060,0.00,VWS V14.01,2013-05-05 02:39:00,
2013-05-04 22:40:00,41.5,29.9,29.74,SSW,202,0.0,0.0,63,0.00,,OVC060,0.00,VWS V14.01,2013-05-05 02:40:00,
2013-05-04 22:41:00,41.5,29.9,29.74,SSW,202,0.0,0.0,63,0.00,,OVC060,0.00,VWS V14.01,2013-05-05 02:41:00,
2013-05-04 22:42:00,41.4,30.1,29.74,SSW,202,0.0,0.0,64,0.00,,OVC060,0.00,VWS V14.01,2013-05-05 02:42:00,
2013-05-04 22:43:00,41.4,30.1,29.74,SSW,202,0.0,0.0,64,0.00,,OVC060,0.00,VWS V14.01,2013-05-05 02:43:00,
2013-05-04 22:44:00,41.2,29.9,29.74,SSW,202,0.0,0.0,64,0.00,,OVC060,0.00,VWS V14.01,2013-05-05 02:44:00,
2013-05-04 22:45:00,41.2,29.9,29.74,SSW,202,0.0,0.0,64,0.00,,OVC060,0.00,VWS V14.01,2013-05-05 02:45:00,
2013-05-04 22:46:00,41.2,29.9,29.74,SSW,202,0.0,0.0,64,0.00,,OVC060,0.00,VWS V14.01,2013-05-05 02:46:00,
2013-05-04 22:47:00,41.0,30.1,29.74,SSW,202,0.0,0.0,65,0.00,,OVC060,0.00,VWS V14.01,2013-05-05 02:47:00,
2013-05-04 22:48:00,41.0,30.1,29.74,East,90,1.3,1.3,65,0.00,,OVC060,0.00,VWS V14.01,2013-05-05 02:48:00,
2013-05-04 22:49:00,41.0,30.1,29.74,ESE,112,0.0,1.3,65,0.00,,OVC060,0.00,VWS V14.01,2013-05-05 02:49:00,
2013-05-04 22:50:00,41.0,30.1,29.74,SSW,202,0.0,0.0,65,0.00,,OVC060,0.00,VWS V14.01,2013-05-05 02:50:00,
2013-05-04 22:51:00,41.0,30.1,29.74,SSW,202,0.0,0.0,65,0.00,,OVC060,0.00,VWS V14.01,2013-05-05 02:51:00,
2013-05-04 22:52:00,41.0,30.1,29.74,SSW,202,0.0,0.0,65,0.00,,OVC060,0.00,VWS V14.01,2013-05-05 02:52:00,
2013-05-04 22:53:00,40.8,31.1,29.74,SSW,202,0.0,0.0,68,0.00,,OVC060,0.00,VWS V14.01,2013-05-05 02:53:00,
2013-05-04 22:54:00,40.8,31.1,29.74,SSW,202,0.0,0.0,68,0.00,,OVC060,0.00,VWS V14.01,2013-05-05 02:54:00,
2013-05-04 22:55:00,40.8,31.1,29.74,SSW,202,0.0,0.0,68,0.00,,OVC060,0.00,VWS V14.01,2013-05-05 02:55:00,
2013-05-04 22:56:00,40.8,31.1,29.74,SSW,202,0.0,0.0,68,0.00,,OVC060,0.00,VWS V14.01,2013-05-05 02:56:00,
2013-05-04 22:57:00,40.8,31.1,29.74,SSW,202,0.0,0.0,68,0.00,,OVC060,0.00,VWS V14.01,2013-05-05 02:57:00,
2013-05-04 22:58:00,40.6,31.3,29.74,SSW,202,0.0,0.0,69,0.00,,OVC060,0.00,VWS V14.01,2013-05-05 02:58:00,
2013-05-04 22:59:00,40.6,31.3,29.74,SSW,202,0.0,0.0,69,0.00,,OVC060,0.00,VWS V14.01,2013-05-05 02:59:00,
2013-05-04 23:00:00,40.5,31.1,29.71,SSW,202,0.0,0.0,69,0.00,,OVC060,0.00,VWS V14.01,2013-05-05 03:00:00,
2013-05-04 23:01:00,40.5,31.1,29.71,SSW,202,0.0,0.0,69,0.00,,OVC060,0.00,VWS V14.01,2013-05-05 03:01:00,
2013-05-04 23:02:00,40.5,31.1,29.71,SSW,202,0.0,0.0,69,0.00,,OVC060,0.00,VWS V14.01,2013-05-05 03:02:00,
2013-05-04 23:03:00,40.3,30.9,29.71,SSW,202,0.0,0.0,69,0.00,,OVC060,0.00,VWS V14.01,2013-05-05 03:03:00,